<?xml version="1.0" encoding="UTF-8" standalone="no" ?>
<gpx xmlns="http://www.topografix.com/GPX/1/1" xmlns:xsi="http://www.w3.org/2001/XMLSchema-instance" xsi:schemaLocation="http://www.topografix.com/GPX/1/1 http://www.topografix.com/GPX/1/1/gpx.xsd" version="1.1" creator="VisuGPX - https://www.visugpx.com">
  <metadata>
    <name>ETAPE 1- GTA 2022 - THONON GRAND BORNAND</name>
  </metadata>
  <trk>
    <name><![CDATA[ETAPE 1- GTA 2022 - THONON GRAND BORNAND]]></name>
    <trkseg>
      <trkpt lat="46.24959" lon="6.63239">
        <ele>756.57278266859</ele>
        <time>2022-01-20T17:53:15.921Z</time>
      </trkpt>
      <trkpt lat="46.24892" lon="6.63391">
        <ele>758.28355836704</ele>
        <time>2022-01-20T17:53:21.591Z</time>
      </trkpt>
      <trkpt lat="46.24858" lon="6.63442">
        <ele>759.22226890267</ele>
        <time>2022-01-20T17:53:27.269Z</time>
      </trkpt>
      <trkpt lat="46.24826" lon="6.63518">
        <ele>759.88736020331</ele>
        <time>2022-01-20T17:53:32.957Z</time>
      </trkpt>
      <trkpt lat="46.24798" lon="6.63601">
        <ele>761.10861713061</ele>
        <time>2022-01-20T17:53:38.655Z</time>
      </trkpt>
      <trkpt lat="46.24786" lon="6.63615">
        <ele>762.08510010509</ele>
        <time>2022-01-20T17:53:44.355Z</time>
      </trkpt>
      <trkpt lat="46.24776" lon="6.6362">
        <ele>762.93506241161</ele>
        <time>2022-01-20T17:53:50.057Z</time>
      </trkpt>
      <trkpt lat="46.24742" lon="6.63629">
        <ele>763.84191907972</ele>
        <time>2022-01-20T17:53:55.764Z</time>
      </trkpt>
      <trkpt lat="46.24733" lon="6.63633">
        <ele>764.3986140532</ele>
        <time>2022-01-20T17:54:01.473Z</time>
      </trkpt>
      <trkpt lat="46.24723" lon="6.63642">
        <ele>764.77814660853</ele>
        <time>2022-01-20T17:54:07.184Z</time>
      </trkpt>
      <trkpt lat="46.24713" lon="6.63654">
        <ele>764.99557325307</ele>
        <time>2022-01-20T17:54:12.897Z</time>
      </trkpt>
      <trkpt lat="46.24699" lon="6.6368">
        <ele>764.95925229169</ele>
        <time>2022-01-20T17:54:18.614Z</time>
      </trkpt>
      <trkpt lat="46.24694" lon="6.63695">
        <ele>764.91512848324</ele>
        <time>2022-01-20T17:54:24.333Z</time>
      </trkpt>
      <trkpt lat="46.24684" lon="6.63742">
        <ele>764.55642593511</ele>
        <time>2022-01-20T17:54:30.057Z</time>
      </trkpt>
      <trkpt lat="46.24655" lon="6.63897">
        <ele>764.16901220283</ele>
        <time>2022-01-20T17:54:35.799Z</time>
      </trkpt>
      <trkpt lat="46.2465" lon="6.63914">
        <ele>764.05949530155</ele>
        <time>2022-01-20T17:54:41.543Z</time>
      </trkpt>
      <trkpt lat="46.24636" lon="6.63945">
        <ele>763.90385446691</ele>
        <time>2022-01-20T17:54:47.291Z</time>
      </trkpt>
      <trkpt lat="46.24606" lon="6.63993">
        <ele>763.68638936747</ele>
        <time>2022-01-20T17:54:53.046Z</time>
      </trkpt>
      <trkpt lat="46.24598" lon="6.64009">
        <ele>763.49533688864</ele>
        <time>2022-01-20T17:54:58.803Z</time>
      </trkpt>
      <trkpt lat="46.24592" lon="6.64027">
        <ele>763.34541874002</ele>
        <time>2022-01-20T17:55:04.562Z</time>
      </trkpt>
      <trkpt lat="46.24588" lon="6.64054">
        <ele>763.26219534326</ele>
        <time>2022-01-20T17:55:10.325Z</time>
      </trkpt>
      <trkpt lat="46.24588" lon="6.64106">
        <ele>763.35288342418</ele>
        <time>2022-01-20T17:55:16.093Z</time>
      </trkpt>
      <trkpt lat="46.24584" lon="6.6413">
        <ele>763.39965418253</ele>
        <time>2022-01-20T17:55:21.864Z</time>
      </trkpt>
      <trkpt lat="46.24584" lon="6.6413">
        <ele>763.47972441853</ele>
        <time>2022-01-20T17:55:27.635Z</time>
      </trkpt>
      <trkpt lat="46.24576" lon="6.64157">
        <ele>763.64332395514</ele>
        <time>2022-01-20T17:55:33.409Z</time>
      </trkpt>
      <trkpt lat="46.24567" lon="6.64174">
        <ele>763.88812428871</ele>
        <time>2022-01-20T17:55:39.186Z</time>
      </trkpt>
      <trkpt lat="46.24554" lon="6.6419">
        <ele>764.18940314369</ele>
        <time>2022-01-20T17:55:44.965Z</time>
      </trkpt>
      <trkpt lat="46.24535" lon="6.64205">
        <ele>764.53733850505</ele>
        <time>2022-01-20T17:55:50.748Z</time>
      </trkpt>
      <trkpt lat="46.24511" lon="6.6421">
        <ele>765.01378470662</ele>
        <time>2022-01-20T17:55:56.535Z</time>
      </trkpt>
      <trkpt lat="46.24446" lon="6.64205">
        <ele>765.86636125031</ele>
        <time>2022-01-20T17:56:02.332Z</time>
      </trkpt>
      <trkpt lat="46.24439" lon="6.64206">
        <ele>766.53048993317</ele>
        <time>2022-01-20T17:56:08.130Z</time>
      </trkpt>
      <trkpt lat="46.24423" lon="6.64212">
        <ele>767.19055976488</ele>
        <time>2022-01-20T17:56:13.931Z</time>
      </trkpt>
      <trkpt lat="46.24407" lon="6.6422">
        <ele>767.97172077529</ele>
        <time>2022-01-20T17:56:19.735Z</time>
      </trkpt>
      <trkpt lat="46.2438" lon="6.64242">
        <ele>768.79565486744</ele>
        <time>2022-01-20T17:56:25.544Z</time>
      </trkpt>
      <trkpt lat="46.2438" lon="6.64242">
        <ele>769.72303685299</ele>
        <time>2022-01-20T17:56:31.353Z</time>
      </trkpt>
      <trkpt lat="46.24369" lon="6.64255">
        <ele>770.72371062794</ele>
        <time>2022-01-20T17:56:37.164Z</time>
      </trkpt>
      <trkpt lat="46.24354" lon="6.64279">
        <ele>771.81235856785</ele>
        <time>2022-01-20T17:56:42.979Z</time>
      </trkpt>
      <trkpt lat="46.24267" lon="6.64457">
        <ele>773.0450988404</ele>
        <time>2022-01-20T17:56:48.818Z</time>
      </trkpt>
      <trkpt lat="46.24209" lon="6.64557">
        <ele>774.30889342011</ele>
        <time>2022-01-20T17:56:54.671Z</time>
      </trkpt>
      <trkpt lat="46.24138" lon="6.64678">
        <ele>775.56102081303</ele>
        <time>2022-01-20T17:57:00.542Z</time>
      </trkpt>
      <trkpt lat="46.24118" lon="6.64718">
        <ele>776.65221530814</ele>
        <time>2022-01-20T17:57:06.418Z</time>
      </trkpt>
      <trkpt lat="46.24118" lon="6.64718">
        <ele>777.73423866238</ele>
        <time>2022-01-20T17:57:12.294Z</time>
      </trkpt>
      <trkpt lat="46.24099" lon="6.64755">
        <ele>778.81228589381</ele>
        <time>2022-01-20T17:57:18.175Z</time>
      </trkpt>
      <trkpt lat="46.24081" lon="6.64792">
        <ele>779.83740495419</ele>
        <time>2022-01-20T17:57:24.061Z</time>
      </trkpt>
      <trkpt lat="46.24045" lon="6.6488">
        <ele>780.81675334903</ele>
        <time>2022-01-20T17:57:29.959Z</time>
      </trkpt>
      <trkpt lat="46.24027" lon="6.64925">
        <ele>781.7728302468</ele>
        <time>2022-01-20T17:57:35.862Z</time>
      </trkpt>
      <trkpt lat="46.2401" lon="6.64964">
        <ele>782.7556574506</ele>
        <time>2022-01-20T17:57:41.771Z</time>
      </trkpt>
      <trkpt lat="46.24003" lon="6.64979">
        <ele>783.69411741967</ele>
        <time>2022-01-20T17:57:47.682Z</time>
      </trkpt>
      <trkpt lat="46.23989" lon="6.64998">
        <ele>784.61366739461</ele>
        <time>2022-01-20T17:57:53.596Z</time>
      </trkpt>
      <trkpt lat="46.23971" lon="6.65017">
        <ele>785.52863421878</ele>
        <time>2022-01-20T17:57:59.513Z</time>
      </trkpt>
      <trkpt lat="46.23953" lon="6.6503">
        <ele>786.39210671923</ele>
        <time>2022-01-20T17:58:05.433Z</time>
      </trkpt>
      <trkpt lat="46.23925" lon="6.65048">
        <ele>787.2462805824</ele>
        <time>2022-01-20T17:58:11.359Z</time>
      </trkpt>
      <trkpt lat="46.23864" lon="6.65087">
        <ele>788.058833016</ele>
        <time>2022-01-20T17:58:17.295Z</time>
      </trkpt>
      <trkpt lat="46.23842" lon="6.65101">
        <ele>788.90412603105</ele>
        <time>2022-01-20T17:58:23.235Z</time>
      </trkpt>
      <trkpt lat="46.23773" lon="6.65144">
        <ele>789.71189783346</ele>
        <time>2022-01-20T17:58:29.187Z</time>
      </trkpt>
      <trkpt lat="46.23758" lon="6.65158">
        <ele>790.5347710046</ele>
        <time>2022-01-20T17:58:35.142Z</time>
      </trkpt>
      <trkpt lat="46.23751" lon="6.65169">
        <ele>791.31699024882</ele>
        <time>2022-01-20T17:58:41.098Z</time>
      </trkpt>
      <trkpt lat="46.23745" lon="6.65182">
        <ele>792.12222991833</ele>
        <time>2022-01-20T17:58:47.056Z</time>
      </trkpt>
      <trkpt lat="46.23742" lon="6.652">
        <ele>792.94148795066</ele>
        <time>2022-01-20T17:58:53.016Z</time>
      </trkpt>
      <trkpt lat="46.23741" lon="6.65223">
        <ele>793.82027254522</ele>
        <time>2022-01-20T17:58:58.979Z</time>
      </trkpt>
      <trkpt lat="46.23741" lon="6.65223">
        <ele>794.58926947849</ele>
        <time>2022-01-20T17:59:04.942Z</time>
      </trkpt>
      <trkpt lat="46.2374" lon="6.65277">
        <ele>795.46930657953</ele>
        <time>2022-01-20T17:59:10.911Z</time>
      </trkpt>
      <trkpt lat="46.23738" lon="6.65294">
        <ele>796.24973041581</ele>
        <time>2022-01-20T17:59:16.882Z</time>
      </trkpt>
      <trkpt lat="46.23735" lon="6.65311">
        <ele>796.99826179307</ele>
        <time>2022-01-20T17:59:22.855Z</time>
      </trkpt>
      <trkpt lat="46.23727" lon="6.65329">
        <ele>797.71126264871</ele>
        <time>2022-01-20T17:59:28.830Z</time>
      </trkpt>
      <trkpt lat="46.23721" lon="6.65336">
        <ele>798.33575139511</ele>
        <time>2022-01-20T17:59:34.806Z</time>
      </trkpt>
      <trkpt lat="46.23686" lon="6.65356">
        <ele>798.93282392664</ele>
        <time>2022-01-20T17:59:40.788Z</time>
      </trkpt>
      <trkpt lat="46.23649" lon="6.65393">
        <ele>799.54299578311</ele>
        <time>2022-01-20T17:59:46.778Z</time>
      </trkpt>
      <trkpt lat="46.23628" lon="6.65406">
        <ele>800.11095347798</ele>
        <time>2022-01-20T17:59:52.771Z</time>
      </trkpt>
      <trkpt lat="46.23619" lon="6.65411">
        <ele>800.61263339288</ele>
        <time>2022-01-20T17:59:58.766Z</time>
      </trkpt>
      <trkpt lat="46.23608" lon="6.65416">
        <ele>801.02944932395</ele>
        <time>2022-01-20T18:00:04.763Z</time>
      </trkpt>
      <trkpt lat="46.23576" lon="6.65438">
        <ele>801.30711677671</ele>
        <time>2022-01-20T18:00:10.765Z</time>
      </trkpt>
      <trkpt lat="46.2356" lon="6.65458">
        <ele>801.66102163472</ele>
        <time>2022-01-20T18:00:16.771Z</time>
      </trkpt>
      <trkpt lat="46.2353" lon="6.6551">
        <ele>802.11495512709</ele>
        <time>2022-01-20T18:00:22.784Z</time>
      </trkpt>
      <trkpt lat="46.23507" lon="6.65535">
        <ele>802.41162623416</ele>
        <time>2022-01-20T18:00:28.802Z</time>
      </trkpt>
      <trkpt lat="46.23492" lon="6.65549">
        <ele>802.63026694555</ele>
        <time>2022-01-20T18:00:34.823Z</time>
      </trkpt>
      <trkpt lat="46.23469" lon="6.65569">
        <ele>802.84809483389</ele>
        <time>2022-01-20T18:00:40.848Z</time>
      </trkpt>
      <trkpt lat="46.23449" lon="6.65582">
        <ele>803.06213006393</ele>
        <time>2022-01-20T18:00:46.876Z</time>
      </trkpt>
      <trkpt lat="46.23448" lon="6.65582">
        <ele>803.24601575791</ele>
        <time>2022-01-20T18:00:52.905Z</time>
      </trkpt>
      <trkpt lat="46.23448" lon="6.65582">
        <ele>803.41614397827</ele>
        <time>2022-01-20T18:00:58.934Z</time>
      </trkpt>
      <trkpt lat="46.23416" lon="6.65598">
        <ele>803.57687656637</ele>
        <time>2022-01-20T18:01:04.968Z</time>
      </trkpt>
      <trkpt lat="46.2339" lon="6.65605">
        <ele>803.75951962125</ele>
        <time>2022-01-20T18:01:11.006Z</time>
      </trkpt>
      <trkpt lat="46.23367" lon="6.65607">
        <ele>803.9500277469</ele>
        <time>2022-01-20T18:01:17.048Z</time>
      </trkpt>
      <trkpt lat="46.23307" lon="6.65606">
        <ele>804.05411228232</ele>
        <time>2022-01-20T18:01:23.100Z</time>
      </trkpt>
      <trkpt lat="46.23307" lon="6.65606">
        <ele>804.21227575854</ele>
        <time>2022-01-20T18:01:29.152Z</time>
      </trkpt>
      <trkpt lat="46.23282" lon="6.65606">
        <ele>804.36323907911</ele>
        <time>2022-01-20T18:01:35.208Z</time>
      </trkpt>
      <trkpt lat="46.2326" lon="6.65611">
        <ele>804.55522571248</ele>
        <time>2022-01-20T18:01:41.267Z</time>
      </trkpt>
      <trkpt lat="46.23185" lon="6.65637">
        <ele>804.81651788348</ele>
        <time>2022-01-20T18:01:47.338Z</time>
      </trkpt>
      <trkpt lat="46.23124" lon="6.6566">
        <ele>805.1421325094</ele>
        <time>2022-01-20T18:01:53.420Z</time>
      </trkpt>
      <trkpt lat="46.23103" lon="6.65674">
        <ele>805.38669883859</ele>
        <time>2022-01-20T18:01:59.505Z</time>
      </trkpt>
      <trkpt lat="46.23087" lon="6.65691">
        <ele>805.62703752406</ele>
        <time>2022-01-20T18:02:05.593Z</time>
      </trkpt>
      <trkpt lat="46.23005" lon="6.65819">
        <ele>805.97226686587</ele>
        <time>2022-01-20T18:02:11.701Z</time>
      </trkpt>
      <trkpt lat="46.23005" lon="6.65819">
        <ele>806.28901225702</ele>
        <time>2022-01-20T18:02:17.809Z</time>
      </trkpt>
      <trkpt lat="46.22998" lon="6.65829">
        <ele>806.63448900648</ele>
        <time>2022-01-20T18:02:23.918Z</time>
      </trkpt>
      <trkpt lat="46.22981" lon="6.65849">
        <ele>807.06096489544</ele>
        <time>2022-01-20T18:02:30.031Z</time>
      </trkpt>
      <trkpt lat="46.22969" lon="6.65861">
        <ele>807.51732649391</ele>
        <time>2022-01-20T18:02:36.146Z</time>
      </trkpt>
      <trkpt lat="46.22956" lon="6.65869">
        <ele>807.99383272062</ele>
        <time>2022-01-20T18:02:42.264Z</time>
      </trkpt>
      <trkpt lat="46.22936" lon="6.6588">
        <ele>808.49482457042</ele>
        <time>2022-01-20T18:02:48.385Z</time>
      </trkpt>
      <trkpt lat="46.22908" lon="6.65895">
        <ele>809.01836726451</ele>
        <time>2022-01-20T18:02:54.511Z</time>
      </trkpt>
      <trkpt lat="46.22857" lon="6.65915">
        <ele>809.70706892498</ele>
        <time>2022-01-20T18:03:00.645Z</time>
      </trkpt>
      <trkpt lat="46.22833" lon="6.65918">
        <ele>810.46197355673</ele>
        <time>2022-01-20T18:03:06.783Z</time>
      </trkpt>
      <trkpt lat="46.22822" lon="6.65918">
        <ele>811.25942102135</ele>
        <time>2022-01-20T18:03:12.923Z</time>
      </trkpt>
      <trkpt lat="46.22778" lon="6.65915">
        <ele>812.09261983379</ele>
        <time>2022-01-20T18:03:19.070Z</time>
      </trkpt>
      <trkpt lat="46.22758" lon="6.65917">
        <ele>812.99929655127</ele>
        <time>2022-01-20T18:03:25.220Z</time>
      </trkpt>
      <trkpt lat="46.22745" lon="6.65922">
        <ele>814.01474699213</ele>
        <time>2022-01-20T18:03:31.372Z</time>
      </trkpt>
      <trkpt lat="46.22715" lon="6.65938">
        <ele>815.16637209781</ele>
        <time>2022-01-20T18:03:37.529Z</time>
      </trkpt>
      <trkpt lat="46.22693" lon="6.6595">
        <ele>816.3862164948</ele>
        <time>2022-01-20T18:03:43.690Z</time>
      </trkpt>
      <trkpt lat="46.22654" lon="6.65972">
        <ele>817.64039105726</ele>
        <time>2022-01-20T18:03:49.858Z</time>
      </trkpt>
      <trkpt lat="46.22583" lon="6.66014">
        <ele>818.98634120908</ele>
        <time>2022-01-20T18:03:56.038Z</time>
      </trkpt>
      <trkpt lat="46.22546" lon="6.66044">
        <ele>820.4267982346</ele>
        <time>2022-01-20T18:04:02.225Z</time>
      </trkpt>
      <trkpt lat="46.22524" lon="6.66063">
        <ele>821.9630082562</ele>
        <time>2022-01-20T18:04:08.416Z</time>
      </trkpt>
      <trkpt lat="46.22503" lon="6.66089">
        <ele>823.56127872045</ele>
        <time>2022-01-20T18:04:14.611Z</time>
      </trkpt>
      <trkpt lat="46.22479" lon="6.66123">
        <ele>825.34929700886</ele>
        <time>2022-01-20T18:04:20.812Z</time>
      </trkpt>
      <trkpt lat="46.22479" lon="6.66123">
        <ele>826.97916809777</ele>
        <time>2022-01-20T18:04:27.013Z</time>
      </trkpt>
      <trkpt lat="46.22429" lon="6.66211">
        <ele>828.92843966114</ele>
        <time>2022-01-20T18:04:33.226Z</time>
      </trkpt>
      <trkpt lat="46.22378" lon="6.66271">
        <ele>830.41816482012</ele>
        <time>2022-01-20T18:04:39.450Z</time>
      </trkpt>
      <trkpt lat="46.22356" lon="6.66314">
        <ele>832.37540828198</ele>
        <time>2022-01-20T18:04:45.680Z</time>
      </trkpt>
      <trkpt lat="46.22346" lon="6.66329">
        <ele>834.13629982628</ele>
        <time>2022-01-20T18:04:51.912Z</time>
      </trkpt>
      <trkpt lat="46.22336" lon="6.66338">
        <ele>835.71357822533</ele>
        <time>2022-01-20T18:04:58.146Z</time>
      </trkpt>
      <trkpt lat="46.22324" lon="6.66344">
        <ele>837.2794387569</ele>
        <time>2022-01-20T18:05:04.382Z</time>
      </trkpt>
      <trkpt lat="46.22255" lon="6.66357">
        <ele>838.64439691254</ele>
        <time>2022-01-20T18:05:10.629Z</time>
      </trkpt>
      <trkpt lat="46.22244" lon="6.6636">
        <ele>840.13316865849</ele>
        <time>2022-01-20T18:05:16.878Z</time>
      </trkpt>
      <trkpt lat="46.22234" lon="6.66367">
        <ele>841.59977450562</ele>
        <time>2022-01-20T18:05:23.129Z</time>
      </trkpt>
      <trkpt lat="46.22176" lon="6.66438">
        <ele>843.24051728417</ele>
        <time>2022-01-20T18:05:29.392Z</time>
      </trkpt>
      <trkpt lat="46.22113" lon="6.66529">
        <ele>844.85825197444</ele>
        <time>2022-01-20T18:05:35.669Z</time>
      </trkpt>
      <trkpt lat="46.22101" lon="6.66541">
        <ele>846.16154437628</ele>
        <time>2022-01-20T18:05:41.949Z</time>
      </trkpt>
      <trkpt lat="46.2208" lon="6.6655">
        <ele>847.36131075903</ele>
        <time>2022-01-20T18:05:48.232Z</time>
      </trkpt>
      <trkpt lat="46.22066" lon="6.66553">
        <ele>848.55170455687</ele>
        <time>2022-01-20T18:05:54.517Z</time>
      </trkpt>
      <trkpt lat="46.22066" lon="6.66553">
        <ele>849.69822546557</ele>
        <time>2022-01-20T18:06:00.802Z</time>
      </trkpt>
      <trkpt lat="46.21964" lon="6.66568">
        <ele>850.96925352276</ele>
        <time>2022-01-20T18:06:07.104Z</time>
      </trkpt>
      <trkpt lat="46.21951" lon="6.66572">
        <ele>851.99510394776</ele>
        <time>2022-01-20T18:06:13.408Z</time>
      </trkpt>
      <trkpt lat="46.21866" lon="6.66625">
        <ele>853.05854136626</ele>
        <time>2022-01-20T18:06:19.727Z</time>
      </trkpt>
      <trkpt lat="46.21823" lon="6.66643">
        <ele>854.01144014524</ele>
        <time>2022-01-20T18:06:26.053Z</time>
      </trkpt>
      <trkpt lat="46.2181" lon="6.6665">
        <ele>854.95242171143</ele>
        <time>2022-01-20T18:06:32.381Z</time>
      </trkpt>
      <trkpt lat="46.21736" lon="6.66715">
        <ele>855.78614817113</ele>
        <time>2022-01-20T18:06:38.723Z</time>
      </trkpt>
      <trkpt lat="46.21735" lon="6.66715">
        <ele>856.66274461961</ele>
        <time>2022-01-20T18:06:45.065Z</time>
      </trkpt>
      <trkpt lat="46.21735" lon="6.66713">
        <ele>857.5226062422</ele>
        <time>2022-01-20T18:06:51.407Z</time>
      </trkpt>
      <trkpt lat="46.21735" lon="6.66715">
        <ele>856.66274461961</ele>
        <time>2022-01-20T18:06:57.749Z</time>
      </trkpt>
      <trkpt lat="46.21727" lon="6.66722">
        <ele>859.27349197653</ele>
        <time>2022-01-20T18:07:04.093Z</time>
      </trkpt>
      <trkpt lat="46.21712" lon="6.66737">
        <ele>860.19535642239</ele>
        <time>2022-01-20T18:07:10.440Z</time>
      </trkpt>
      <trkpt lat="46.21703" lon="6.66748">
        <ele>861.15725231972</ele>
        <time>2022-01-20T18:07:16.789Z</time>
      </trkpt>
      <trkpt lat="46.21703" lon="6.66748">
        <ele>862.10756099905</ele>
        <time>2022-01-20T18:07:23.138Z</time>
      </trkpt>
      <trkpt lat="46.21686" lon="6.6677">
        <ele>863.09719680752</ele>
        <time>2022-01-20T18:07:29.490Z</time>
      </trkpt>
      <trkpt lat="46.21652" lon="6.66831">
        <ele>864.32721738221</ele>
        <time>2022-01-20T18:07:35.851Z</time>
      </trkpt>
      <trkpt lat="46.21633" lon="6.66857">
        <ele>865.49703653201</ele>
        <time>2022-01-20T18:07:42.216Z</time>
      </trkpt>
      <trkpt lat="46.21502" lon="6.66973">
        <ele>866.50790176998</ele>
        <time>2022-01-20T18:07:48.606Z</time>
      </trkpt>
      <trkpt lat="46.21485" lon="6.66985">
        <ele>867.66777339162</ele>
        <time>2022-01-20T18:07:54.999Z</time>
      </trkpt>
      <trkpt lat="46.21472" lon="6.6699">
        <ele>868.88138914845</ele>
        <time>2022-01-20T18:08:01.394Z</time>
      </trkpt>
      <trkpt lat="46.21403" lon="6.67013">
        <ele>870.13241555817</ele>
        <time>2022-01-20T18:08:07.800Z</time>
      </trkpt>
      <trkpt lat="46.21376" lon="6.67024">
        <ele>871.21525138046</ele>
        <time>2022-01-20T18:08:14.211Z</time>
      </trkpt>
      <trkpt lat="46.21189" lon="6.6715">
        <ele>872.47309205595</ele>
        <time>2022-01-20T18:08:20.655Z</time>
      </trkpt>
      <trkpt lat="46.20904" lon="6.67335">
        <ele>873.68429413655</ele>
        <time>2022-01-20T18:08:27.149Z</time>
      </trkpt>
      <trkpt lat="46.2072" lon="6.67457">
        <ele>875.20199921568</ele>
        <time>2022-01-20T18:08:33.676Z</time>
      </trkpt>
      <trkpt lat="46.2072" lon="6.67457">
        <ele>876.55773263873</ele>
        <time>2022-01-20T18:08:40.203Z</time>
      </trkpt>
      <trkpt lat="46.20502" lon="6.67602">
        <ele>878.34601199712</ele>
        <time>2022-01-20T18:08:46.768Z</time>
      </trkpt>
      <trkpt lat="46.20502" lon="6.67602">
        <ele>879.70908171366</ele>
        <time>2022-01-20T18:08:53.333Z</time>
      </trkpt>
      <trkpt lat="46.20491" lon="6.67607">
        <ele>880.99988484864</ele>
        <time>2022-01-20T18:08:59.900Z</time>
      </trkpt>
      <trkpt lat="46.20491" lon="6.67607">
        <ele>882.32082841126</ele>
        <time>2022-01-20T18:09:06.467Z</time>
      </trkpt>
      <trkpt lat="46.20422" lon="6.6765">
        <ele>883.7012921435</ele>
        <time>2022-01-20T18:09:13.046Z</time>
      </trkpt>
      <trkpt lat="46.204" lon="6.67666">
        <ele>884.83269780506</ele>
        <time>2022-01-20T18:09:19.629Z</time>
      </trkpt>
      <trkpt lat="46.20395" lon="6.67674">
        <ele>886.02056511726</ele>
        <time>2022-01-20T18:09:26.213Z</time>
      </trkpt>
      <trkpt lat="46.20387" lon="6.67689">
        <ele>887.1940044193</ele>
        <time>2022-01-20T18:09:32.799Z</time>
      </trkpt>
      <trkpt lat="46.20381" lon="6.67716">
        <ele>888.29653809007</ele>
        <time>2022-01-20T18:09:39.388Z</time>
      </trkpt>
      <trkpt lat="46.20378" lon="6.67765">
        <ele>889.55831365295</ele>
        <time>2022-01-20T18:09:45.983Z</time>
      </trkpt>
      <trkpt lat="46.20374" lon="6.67783">
        <ele>890.5513128745</ele>
        <time>2022-01-20T18:09:52.580Z</time>
      </trkpt>
      <trkpt lat="46.20369" lon="6.67796">
        <ele>891.41041889173</ele>
        <time>2022-01-20T18:09:59.178Z</time>
      </trkpt>
      <trkpt lat="46.20361" lon="6.67809">
        <ele>892.02169819781</ele>
        <time>2022-01-20T18:10:05.778Z</time>
      </trkpt>
      <trkpt lat="46.20317" lon="6.67859">
        <ele>892.32874510033</ele>
        <time>2022-01-20T18:10:12.387Z</time>
      </trkpt>
      <trkpt lat="46.20306" lon="6.6788">
        <ele>892.68556346493</ele>
        <time>2022-01-20T18:10:18.999Z</time>
      </trkpt>
      <trkpt lat="46.20298" lon="6.67899">
        <ele>893.02366865018</ele>
        <time>2022-01-20T18:10:25.614Z</time>
      </trkpt>
      <trkpt lat="46.20285" lon="6.67952">
        <ele>893.35736762357</ele>
        <time>2022-01-20T18:10:32.235Z</time>
      </trkpt>
      <trkpt lat="46.20283" lon="6.67972">
        <ele>893.49958358289</ele>
        <time>2022-01-20T18:10:38.858Z</time>
      </trkpt>
      <trkpt lat="46.20284" lon="6.68012">
        <ele>893.54172666188</ele>
        <time>2022-01-20T18:10:45.486Z</time>
      </trkpt>
      <trkpt lat="46.20284" lon="6.68031">
        <ele>893.4923114785</ele>
        <time>2022-01-20T18:10:52.116Z</time>
      </trkpt>
      <trkpt lat="46.20281" lon="6.68058">
        <ele>893.34853244866</ele>
        <time>2022-01-20T18:10:58.749Z</time>
      </trkpt>
      <trkpt lat="46.20251" lon="6.68226">
        <ele>893.14033529315</ele>
        <time>2022-01-20T18:11:05.401Z</time>
      </trkpt>
      <trkpt lat="46.20245" lon="6.68279">
        <ele>892.90529206785</ele>
        <time>2022-01-20T18:11:12.059Z</time>
      </trkpt>
      <trkpt lat="46.20237" lon="6.68298">
        <ele>892.61300112892</ele>
        <time>2022-01-20T18:11:18.720Z</time>
      </trkpt>
      <trkpt lat="46.20226" lon="6.68314">
        <ele>892.29220052599</ele>
        <time>2022-01-20T18:11:25.383Z</time>
      </trkpt>
      <trkpt lat="46.20204" lon="6.68325">
        <ele>891.96279633949</ele>
        <time>2022-01-20T18:11:32.050Z</time>
      </trkpt>
      <trkpt lat="46.20202" lon="6.68321">
        <ele>891.61209985311</ele>
        <time>2022-01-20T18:11:38.717Z</time>
      </trkpt>
      <trkpt lat="46.20198" lon="6.68319">
        <ele>891.26990942821</ele>
        <time>2022-01-20T18:11:45.385Z</time>
      </trkpt>
      <trkpt lat="46.20195" lon="6.6832">
        <ele>890.95025449691</ele>
        <time>2022-01-20T18:11:52.053Z</time>
      </trkpt>
      <trkpt lat="46.20193" lon="6.68325">
        <ele>890.65887087905</ele>
        <time>2022-01-20T18:11:58.722Z</time>
      </trkpt>
      <trkpt lat="46.20193" lon="6.68331">
        <ele>890.40409418616</ele>
        <time>2022-01-20T18:12:05.392Z</time>
      </trkpt>
      <trkpt lat="46.20196" lon="6.68336">
        <ele>890.18937008066</ele>
        <time>2022-01-20T18:12:12.063Z</time>
      </trkpt>
      <trkpt lat="46.20189" lon="6.68353">
        <ele>890.04506092799</ele>
        <time>2022-01-20T18:12:18.736Z</time>
      </trkpt>
      <trkpt lat="46.20182" lon="6.68362">
        <ele>889.92917744743</ele>
        <time>2022-01-20T18:12:25.410Z</time>
      </trkpt>
      <trkpt lat="46.20155" lon="6.68402">
        <ele>889.88670445709</ele>
        <time>2022-01-20T18:12:32.090Z</time>
      </trkpt>
      <trkpt lat="46.20145" lon="6.68419">
        <ele>889.94584779618</ele>
        <time>2022-01-20T18:12:38.773Z</time>
      </trkpt>
      <trkpt lat="46.20139" lon="6.68429">
        <ele>890.05680761342</ele>
        <time>2022-01-20T18:12:45.457Z</time>
      </trkpt>
      <trkpt lat="46.20139" lon="6.68429">
        <ele>890.23900765919</ele>
        <time>2022-01-20T18:12:52.141Z</time>
      </trkpt>
      <trkpt lat="46.2012" lon="6.68471">
        <ele>890.50760750269</ele>
        <time>2022-01-20T18:12:58.831Z</time>
      </trkpt>
      <trkpt lat="46.20103" lon="6.68533">
        <ele>890.8633404129</ele>
        <time>2022-01-20T18:13:05.528Z</time>
      </trkpt>
      <trkpt lat="46.20078" lon="6.68659">
        <ele>891.29892595947</ele>
        <time>2022-01-20T18:13:12.240Z</time>
      </trkpt>
      <trkpt lat="46.20052" lon="6.68802">
        <ele>892.03233753404</ele>
        <time>2022-01-20T18:13:18.968Z</time>
      </trkpt>
      <trkpt lat="46.20048" lon="6.68822">
        <ele>892.70262918031</ele>
        <time>2022-01-20T18:13:25.699Z</time>
      </trkpt>
      <trkpt lat="46.20032" lon="6.68877">
        <ele>893.54104006361</ele>
        <time>2022-01-20T18:13:32.436Z</time>
      </trkpt>
      <trkpt lat="46.2003" lon="6.68894">
        <ele>894.50203503894</ele>
        <time>2022-01-20T18:13:39.175Z</time>
      </trkpt>
      <trkpt lat="46.20029" lon="6.68924">
        <ele>895.62770757809</ele>
        <time>2022-01-20T18:13:45.918Z</time>
      </trkpt>
      <trkpt lat="46.20027" lon="6.68936">
        <ele>896.82364773681</ele>
        <time>2022-01-20T18:13:52.662Z</time>
      </trkpt>
      <trkpt lat="46.20021" lon="6.68948">
        <ele>898.13422700233</ele>
        <time>2022-01-20T18:13:59.408Z</time>
      </trkpt>
      <trkpt lat="46.20016" lon="6.68954">
        <ele>899.56360279003</ele>
        <time>2022-01-20T18:14:06.155Z</time>
      </trkpt>
      <trkpt lat="46.20012" lon="6.68957">
        <ele>901.11486438372</ele>
        <time>2022-01-20T18:14:12.902Z</time>
      </trkpt>
      <trkpt lat="46.20006" lon="6.68957">
        <ele>902.77427203356</ele>
        <time>2022-01-20T18:14:19.650Z</time>
      </trkpt>
      <trkpt lat="46.20004" lon="6.68957">
        <ele>904.54781442436</ele>
        <time>2022-01-20T18:14:26.399Z</time>
      </trkpt>
      <trkpt lat="46.19992" lon="6.68953">
        <ele>906.40396380762</ele>
        <time>2022-01-20T18:14:33.150Z</time>
      </trkpt>
      <trkpt lat="46.19964" lon="6.6894">
        <ele>908.36316601037</ele>
        <time>2022-01-20T18:14:39.905Z</time>
      </trkpt>
      <trkpt lat="46.19952" lon="6.68939">
        <ele>910.42110945117</ele>
        <time>2022-01-20T18:14:46.662Z</time>
      </trkpt>
      <trkpt lat="46.19943" lon="6.68944">
        <ele>912.5794467146</ele>
        <time>2022-01-20T18:14:53.421Z</time>
      </trkpt>
      <trkpt lat="46.19897" lon="6.69008">
        <ele>915.0112449002</ele>
        <time>2022-01-20T18:15:00.190Z</time>
      </trkpt>
      <trkpt lat="46.19881" lon="6.69048">
        <ele>917.36175424661</ele>
        <time>2022-01-20T18:15:06.964Z</time>
      </trkpt>
      <trkpt lat="46.19849" lon="6.69102">
        <ele>919.70280845391</ele>
        <time>2022-01-20T18:15:13.746Z</time>
      </trkpt>
      <trkpt lat="46.19762" lon="6.6927">
        <ele>922.16274798419</ele>
        <time>2022-01-20T18:15:20.551Z</time>
      </trkpt>
      <trkpt lat="46.19706" lon="6.69411">
        <ele>924.69453456756</ele>
        <time>2022-01-20T18:15:27.374Z</time>
      </trkpt>
      <trkpt lat="46.19716" lon="6.69417">
        <ele>926.72107358432</ele>
        <time>2022-01-20T18:15:34.199Z</time>
      </trkpt>
      <trkpt lat="46.19725" lon="6.6942">
        <ele>928.6434434456</ele>
        <time>2022-01-20T18:15:41.026Z</time>
      </trkpt>
      <trkpt lat="46.19778" lon="6.69421">
        <ele>930.39415821787</ele>
        <time>2022-01-20T18:15:47.861Z</time>
      </trkpt>
      <trkpt lat="46.19809" lon="6.69418">
        <ele>932.0843165302</ele>
        <time>2022-01-20T18:15:54.701Z</time>
      </trkpt>
      <trkpt lat="46.19841" lon="6.69405">
        <ele>933.61798328509</ele>
        <time>2022-01-20T18:16:01.546Z</time>
      </trkpt>
      <trkpt lat="46.19866" lon="6.69392">
        <ele>934.98770925692</ele>
        <time>2022-01-20T18:16:08.396Z</time>
      </trkpt>
      <trkpt lat="46.19878" lon="6.69388">
        <ele>936.25286768497</ele>
        <time>2022-01-20T18:16:15.248Z</time>
      </trkpt>
      <trkpt lat="46.19885" lon="6.69388">
        <ele>937.39887058255</ele>
        <time>2022-01-20T18:16:22.101Z</time>
      </trkpt>
      <trkpt lat="46.19889" lon="6.6939">
        <ele>938.44494066333</ele>
        <time>2022-01-20T18:16:28.955Z</time>
      </trkpt>
      <trkpt lat="46.19894" lon="6.69389">
        <ele>939.3913602841</ele>
        <time>2022-01-20T18:16:35.809Z</time>
      </trkpt>
      <trkpt lat="46.199" lon="6.69394">
        <ele>940.25690714884</ele>
        <time>2022-01-20T18:16:42.664Z</time>
      </trkpt>
      <trkpt lat="46.19908" lon="6.69404">
        <ele>941.05031672435</ele>
        <time>2022-01-20T18:16:49.521Z</time>
      </trkpt>
      <trkpt lat="46.19922" lon="6.6944">
        <ele>941.81678360219</ele>
        <time>2022-01-20T18:16:56.383Z</time>
      </trkpt>
      <trkpt lat="46.19932" lon="6.69466">
        <ele>942.5718616844</ele>
        <time>2022-01-20T18:17:03.248Z</time>
      </trkpt>
      <trkpt lat="46.19934" lon="6.69475">
        <ele>943.29569884816</ele>
        <time>2022-01-20T18:17:10.114Z</time>
      </trkpt>
      <trkpt lat="46.19944" lon="6.695">
        <ele>944.02167926919</ele>
        <time>2022-01-20T18:17:16.983Z</time>
      </trkpt>
      <trkpt lat="46.19957" lon="6.69534">
        <ele>944.77232086625</ele>
        <time>2022-01-20T18:17:23.857Z</time>
      </trkpt>
      <trkpt lat="46.19976" lon="6.69582">
        <ele>945.59777490841</ele>
        <time>2022-01-20T18:17:30.737Z</time>
      </trkpt>
      <trkpt lat="46.19982" lon="6.69598">
        <ele>946.43061511208</ele>
        <time>2022-01-20T18:17:37.619Z</time>
      </trkpt>
      <trkpt lat="46.19982" lon="6.69598">
        <ele>947.3031794913</ele>
        <time>2022-01-20T18:17:44.501Z</time>
      </trkpt>
      <trkpt lat="46.19992" lon="6.69629">
        <ele>948.30409267765</ele>
        <time>2022-01-20T18:17:51.386Z</time>
      </trkpt>
      <trkpt lat="46.20003" lon="6.69655">
        <ele>949.37199383523</ele>
        <time>2022-01-20T18:17:58.275Z</time>
      </trkpt>
      <trkpt lat="46.19999" lon="6.69663">
        <ele>950.51640940193</ele>
        <time>2022-01-20T18:18:05.165Z</time>
      </trkpt>
      <trkpt lat="46.19999" lon="6.69669">
        <ele>951.76183973277</ele>
        <time>2022-01-20T18:18:12.056Z</time>
      </trkpt>
      <trkpt lat="46.20002" lon="6.69676">
        <ele>953.11820469677</ele>
        <time>2022-01-20T18:18:18.948Z</time>
      </trkpt>
      <trkpt lat="46.20008" lon="6.69677">
        <ele>954.58575519181</ele>
        <time>2022-01-20T18:18:25.841Z</time>
      </trkpt>
      <trkpt lat="46.20011" lon="6.69675">
        <ele>956.17809639084</ele>
        <time>2022-01-20T18:18:32.734Z</time>
      </trkpt>
      <trkpt lat="46.20139" lon="6.7001">
        <ele>958.26234629702</ele>
        <time>2022-01-20T18:18:39.670Z</time>
      </trkpt>
      <trkpt lat="46.20157" lon="6.70059">
        <ele>960.20915748692</ele>
        <time>2022-01-20T18:18:46.612Z</time>
      </trkpt>
      <trkpt lat="46.20163" lon="6.70079">
        <ele>962.25355256377</ele>
        <time>2022-01-20T18:18:53.556Z</time>
      </trkpt>
      <trkpt lat="46.20185" lon="6.70193">
        <ele>964.5351210029</ele>
        <time>2022-01-20T18:19:00.513Z</time>
      </trkpt>
      <trkpt lat="46.20196" lon="6.70226">
        <ele>966.73387291663</ele>
        <time>2022-01-20T18:19:07.474Z</time>
      </trkpt>
      <trkpt lat="46.20206" lon="6.70251">
        <ele>968.99427867693</ele>
        <time>2022-01-20T18:19:14.439Z</time>
      </trkpt>
      <trkpt lat="46.20211" lon="6.70269">
        <ele>971.3167071019</ele>
        <time>2022-01-20T18:19:21.406Z</time>
      </trkpt>
      <trkpt lat="46.20213" lon="6.70289">
        <ele>973.78124011495</ele>
        <time>2022-01-20T18:19:28.375Z</time>
      </trkpt>
      <trkpt lat="46.20216" lon="6.70315">
        <ele>976.43074615452</ele>
        <time>2022-01-20T18:19:35.347Z</time>
      </trkpt>
      <trkpt lat="46.20216" lon="6.70332">
        <ele>979.03435052793</ele>
        <time>2022-01-20T18:19:42.321Z</time>
      </trkpt>
      <trkpt lat="46.20219" lon="6.70358">
        <ele>981.7948353331</ele>
        <time>2022-01-20T18:19:49.298Z</time>
      </trkpt>
      <trkpt lat="46.20228" lon="6.70393">
        <ele>984.6860731262</ele>
        <time>2022-01-20T18:19:56.279Z</time>
      </trkpt>
      <trkpt lat="46.20235" lon="6.70408">
        <ele>987.55840792377</ele>
        <time>2022-01-20T18:20:03.262Z</time>
      </trkpt>
      <trkpt lat="46.2033" lon="6.70583">
        <ele>990.74937381659</ele>
        <time>2022-01-20T18:20:10.270Z</time>
      </trkpt>
      <trkpt lat="46.20344" lon="6.70618">
        <ele>993.78336038635</ele>
        <time>2022-01-20T18:20:17.282Z</time>
      </trkpt>
      <trkpt lat="46.20351" lon="6.7064">
        <ele>996.91637483109</ele>
        <time>2022-01-20T18:20:24.297Z</time>
      </trkpt>
      <trkpt lat="46.20359" lon="6.70683">
        <ele>999.98610360902</ele>
        <time>2022-01-20T18:20:31.317Z</time>
      </trkpt>
      <trkpt lat="46.20375" lon="6.70741">
        <ele>1003.1771149914</ele>
        <time>2022-01-20T18:20:38.344Z</time>
      </trkpt>
      <trkpt lat="46.20389" lon="6.70812">
        <ele>1006.486186808</ele>
        <time>2022-01-20T18:20:45.379Z</time>
      </trkpt>
      <trkpt lat="46.20395" lon="6.70837">
        <ele>1009.6993633135</ele>
        <time>2022-01-20T18:20:52.417Z</time>
      </trkpt>
      <trkpt lat="46.20433" lon="6.70957">
        <ele>1013.1307343379</ele>
        <time>2022-01-20T18:20:59.469Z</time>
      </trkpt>
      <trkpt lat="46.20471" lon="6.71057">
        <ele>1016.3787406199</ele>
        <time>2022-01-20T18:21:06.534Z</time>
      </trkpt>
      <trkpt lat="46.20476" lon="6.71087">
        <ele>1019.6983796056</ele>
        <time>2022-01-20T18:21:13.603Z</time>
      </trkpt>
      <trkpt lat="46.20481" lon="6.71149">
        <ele>1023.0130311842</ele>
        <time>2022-01-20T18:21:20.679Z</time>
      </trkpt>
      <trkpt lat="46.20485" lon="6.71175">
        <ele>1026.2231074968</ele>
        <time>2022-01-20T18:21:27.757Z</time>
      </trkpt>
      <trkpt lat="46.20488" lon="6.71187">
        <ele>1029.3602613898</ele>
        <time>2022-01-20T18:21:34.837Z</time>
      </trkpt>
      <trkpt lat="46.20508" lon="6.71241">
        <ele>1032.5262140747</ele>
        <time>2022-01-20T18:21:41.924Z</time>
      </trkpt>
      <trkpt lat="46.20576" lon="6.71386">
        <ele>1035.7281367791</ele>
        <time>2022-01-20T18:21:49.030Z</time>
      </trkpt>
      <trkpt lat="46.20585" lon="6.71412">
        <ele>1038.8086324268</ele>
        <time>2022-01-20T18:21:56.139Z</time>
      </trkpt>
      <trkpt lat="46.20593" lon="6.71451">
        <ele>1041.9285038228</ele>
        <time>2022-01-20T18:22:03.253Z</time>
      </trkpt>
      <trkpt lat="46.20593" lon="6.71451">
        <ele>1044.8175358665</ele>
        <time>2022-01-20T18:22:10.367Z</time>
      </trkpt>
      <trkpt lat="46.206" lon="6.71472">
        <ele>1047.6945057291</ele>
        <time>2022-01-20T18:22:17.483Z</time>
      </trkpt>
      <trkpt lat="46.2061" lon="6.71488">
        <ele>1050.4942676807</ele>
        <time>2022-01-20T18:22:24.602Z</time>
      </trkpt>
      <trkpt lat="46.20634" lon="6.71521">
        <ele>1053.2794732634</ele>
        <time>2022-01-20T18:22:31.726Z</time>
      </trkpt>
      <trkpt lat="46.20645" lon="6.71539">
        <ele>1055.8964458638</ele>
        <time>2022-01-20T18:22:38.853Z</time>
      </trkpt>
      <trkpt lat="46.20663" lon="6.71589">
        <ele>1058.5217256395</ele>
        <time>2022-01-20T18:22:45.986Z</time>
      </trkpt>
      <trkpt lat="46.2067" lon="6.71606">
        <ele>1061.0195426774</ele>
        <time>2022-01-20T18:22:53.121Z</time>
      </trkpt>
      <trkpt lat="46.2067" lon="6.71606">
        <ele>1063.3813688818</ele>
        <time>2022-01-20T18:23:00.256Z</time>
      </trkpt>
      <trkpt lat="46.20685" lon="6.71625">
        <ele>1065.6837324141</ele>
        <time>2022-01-20T18:23:07.395Z</time>
      </trkpt>
      <trkpt lat="46.20696" lon="6.71635">
        <ele>1067.8717505059</ele>
        <time>2022-01-20T18:23:14.536Z</time>
      </trkpt>
      <trkpt lat="46.2075" lon="6.71662">
        <ele>1070.0110399888</ele>
        <time>2022-01-20T18:23:21.686Z</time>
      </trkpt>
      <trkpt lat="46.20765" lon="6.71666">
        <ele>1072.0542214595</ele>
        <time>2022-01-20T18:23:28.838Z</time>
      </trkpt>
      <trkpt lat="46.20796" lon="6.71669">
        <ele>1074.1780776758</ele>
        <time>2022-01-20T18:23:35.995Z</time>
      </trkpt>
      <trkpt lat="46.20807" lon="6.71674">
        <ele>1076.0962617488</ele>
        <time>2022-01-20T18:23:43.154Z</time>
      </trkpt>
      <trkpt lat="46.20813" lon="6.7168">
        <ele>1077.8600190669</ele>
        <time>2022-01-20T18:23:50.314Z</time>
      </trkpt>
      <trkpt lat="46.20824" lon="6.71695">
        <ele>1079.5471421805</ele>
        <time>2022-01-20T18:23:57.477Z</time>
      </trkpt>
      <trkpt lat="46.20832" lon="6.7172">
        <ele>1081.1261934391</ele>
        <time>2022-01-20T18:24:04.643Z</time>
      </trkpt>
      <trkpt lat="46.20835" lon="6.71737">
        <ele>1082.4607356945</ele>
        <time>2022-01-20T18:24:11.811Z</time>
      </trkpt>
      <trkpt lat="46.20836" lon="6.71765">
        <ele>1083.6428199054</ele>
        <time>2022-01-20T18:24:18.982Z</time>
      </trkpt>
      <trkpt lat="46.20836" lon="6.71765">
        <ele>1084.7144883465</ele>
        <time>2022-01-20T18:24:26.153Z</time>
      </trkpt>
      <trkpt lat="46.20841" lon="6.7178">
        <ele>1085.6693824527</ele>
        <time>2022-01-20T18:24:33.326Z</time>
      </trkpt>
      <trkpt lat="46.20855" lon="6.71795">
        <ele>1086.5801763024</ele>
        <time>2022-01-20T18:24:40.501Z</time>
      </trkpt>
      <trkpt lat="46.20866" lon="6.71811">
        <ele>1087.4237727668</ele>
        <time>2022-01-20T18:24:47.679Z</time>
      </trkpt>
      <trkpt lat="46.20873" lon="6.71836">
        <ele>1088.0386423534</ele>
        <time>2022-01-20T18:24:54.860Z</time>
      </trkpt>
      <trkpt lat="46.20878" lon="6.71886">
        <ele>1088.4429152492</ele>
        <time>2022-01-20T18:25:02.046Z</time>
      </trkpt>
      <trkpt lat="46.20886" lon="6.71948">
        <ele>1088.6925502319</ele>
        <time>2022-01-20T18:25:09.239Z</time>
      </trkpt>
      <trkpt lat="46.20895" lon="6.7199">
        <ele>1088.6608883074</ele>
        <time>2022-01-20T18:25:16.437Z</time>
      </trkpt>
      <trkpt lat="46.20906" lon="6.72024">
        <ele>1088.6507480272</ele>
        <time>2022-01-20T18:25:23.640Z</time>
      </trkpt>
      <trkpt lat="46.20916" lon="6.7204">
        <ele>1088.6263983242</ele>
        <time>2022-01-20T18:25:30.845Z</time>
      </trkpt>
      <trkpt lat="46.20929" lon="6.72054">
        <ele>1088.5508669466</ele>
        <time>2022-01-20T18:25:38.053Z</time>
      </trkpt>
      <trkpt lat="46.20997" lon="6.72099">
        <ele>1088.4576090697</ele>
        <time>2022-01-20T18:25:45.272Z</time>
      </trkpt>
      <trkpt lat="46.21014" lon="6.72115">
        <ele>1088.2667420665</ele>
        <time>2022-01-20T18:25:52.495Z</time>
      </trkpt>
      <trkpt lat="46.21022" lon="6.72127">
        <ele>1087.9956981331</ele>
        <time>2022-01-20T18:25:59.720Z</time>
      </trkpt>
      <trkpt lat="46.21029" lon="6.72138">
        <ele>1087.6868169234</ele>
        <time>2022-01-20T18:26:06.946Z</time>
      </trkpt>
      <trkpt lat="46.21036" lon="6.72155">
        <ele>1087.3408554771</ele>
        <time>2022-01-20T18:26:14.174Z</time>
      </trkpt>
      <trkpt lat="46.21041" lon="6.72179">
        <ele>1086.9541971553</ele>
        <time>2022-01-20T18:26:21.405Z</time>
      </trkpt>
      <trkpt lat="46.21042" lon="6.72191">
        <ele>1086.5959325359</ele>
        <time>2022-01-20T18:26:28.637Z</time>
      </trkpt>
      <trkpt lat="46.21048" lon="6.72222">
        <ele>1086.2200882889</ele>
        <time>2022-01-20T18:26:35.873Z</time>
      </trkpt>
      <trkpt lat="46.21063" lon="6.72264">
        <ele>1085.9748376021</ele>
        <time>2022-01-20T18:26:43.114Z</time>
      </trkpt>
      <trkpt lat="46.21064" lon="6.72284">
        <ele>1085.7265544939</ele>
        <time>2022-01-20T18:26:50.358Z</time>
      </trkpt>
      <trkpt lat="46.21061" lon="6.72306">
        <ele>1085.517305111</ele>
        <time>2022-01-20T18:26:57.604Z</time>
      </trkpt>
      <trkpt lat="46.21044" lon="6.72393">
        <ele>1085.393678029</ele>
        <time>2022-01-20T18:27:04.860Z</time>
      </trkpt>
      <trkpt lat="46.21038" lon="6.72422">
        <ele>1085.1517881078</ele>
        <time>2022-01-20T18:27:12.120Z</time>
      </trkpt>
      <trkpt lat="46.21036" lon="6.72545">
        <ele>1085.1405734869</ele>
        <time>2022-01-20T18:27:19.393Z</time>
      </trkpt>
      <trkpt lat="46.21029" lon="6.7262">
        <ele>1085.3408880927</ele>
        <time>2022-01-20T18:27:26.675Z</time>
      </trkpt>
      <trkpt lat="46.21029" lon="6.7264">
        <ele>1085.4708188476</ele>
        <time>2022-01-20T18:27:33.959Z</time>
      </trkpt>
      <trkpt lat="46.21037" lon="6.72726">
        <ele>1085.7973391047</ele>
        <time>2022-01-20T18:27:41.252Z</time>
      </trkpt>
      <trkpt lat="46.21037" lon="6.72813">
        <ele>1086.0470304538</ele>
        <time>2022-01-20T18:27:48.555Z</time>
      </trkpt>
      <trkpt lat="46.21038" lon="6.72873">
        <ele>1086.4287525164</ele>
        <time>2022-01-20T18:27:55.865Z</time>
      </trkpt>
      <trkpt lat="46.21047" lon="6.72964">
        <ele>1087.1531796756</ele>
        <time>2022-01-20T18:28:03.185Z</time>
      </trkpt>
      <trkpt lat="46.2105" lon="6.73022">
        <ele>1087.6765547494</ele>
        <time>2022-01-20T18:28:10.511Z</time>
      </trkpt>
      <trkpt lat="46.21049" lon="6.73053">
        <ele>1088.2581483533</ele>
        <time>2022-01-20T18:28:17.841Z</time>
      </trkpt>
      <trkpt lat="46.21038" lon="6.7312">
        <ele>1088.7876440796</ele>
        <time>2022-01-20T18:28:25.179Z</time>
      </trkpt>
      <trkpt lat="46.21036" lon="6.73153">
        <ele>1089.7092615991</ele>
        <time>2022-01-20T18:28:32.520Z</time>
      </trkpt>
      <trkpt lat="46.2104" lon="6.73192">
        <ele>1090.7233338158</ele>
        <time>2022-01-20T18:28:39.866Z</time>
      </trkpt>
      <trkpt lat="46.21072" lon="6.73358">
        <ele>1092.0597293639</ele>
        <time>2022-01-20T18:28:47.231Z</time>
      </trkpt>
      <trkpt lat="46.21078" lon="6.73399">
        <ele>1093.3190520073</ele>
        <time>2022-01-20T18:28:54.600Z</time>
      </trkpt>
      <trkpt lat="46.21085" lon="6.73452">
        <ele>1094.5713821363</ele>
        <time>2022-01-20T18:29:01.975Z</time>
      </trkpt>
      <trkpt lat="46.21091" lon="6.73551">
        <ele>1096.027272007</ele>
        <time>2022-01-20T18:29:09.361Z</time>
      </trkpt>
      <trkpt lat="46.21096" lon="6.73584">
        <ele>1097.482120977</ele>
        <time>2022-01-20T18:29:16.751Z</time>
      </trkpt>
      <trkpt lat="46.21112" lon="6.73672">
        <ele>1099.1095596552</ele>
        <time>2022-01-20T18:29:24.151Z</time>
      </trkpt>
      <trkpt lat="46.21114" lon="6.73693">
        <ele>1100.7722656523</ele>
        <time>2022-01-20T18:29:31.554Z</time>
      </trkpt>
      <trkpt lat="46.21111" lon="6.73738">
        <ele>1102.4256895114</ele>
        <time>2022-01-20T18:29:38.962Z</time>
      </trkpt>
      <trkpt lat="46.21114" lon="6.73763">
        <ele>1104.1300233824</ele>
        <time>2022-01-20T18:29:46.373Z</time>
      </trkpt>
      <trkpt lat="46.21117" lon="6.73779">
        <ele>1106.0089241135</ele>
        <time>2022-01-20T18:29:53.785Z</time>
      </trkpt>
      <trkpt lat="46.21132" lon="6.73818">
        <ele>1108.1497235053</ele>
        <time>2022-01-20T18:30:01.202Z</time>
      </trkpt>
      <trkpt lat="46.21136" lon="6.73838">
        <ele>1110.3744668813</ele>
        <time>2022-01-20T18:30:08.622Z</time>
      </trkpt>
      <trkpt lat="46.21146" lon="6.73937">
        <ele>1112.6326680246</ele>
        <time>2022-01-20T18:30:16.053Z</time>
      </trkpt>
      <trkpt lat="46.21153" lon="6.73987">
        <ele>1114.9188312809</ele>
        <time>2022-01-20T18:30:23.489Z</time>
      </trkpt>
      <trkpt lat="46.21167" lon="6.74066">
        <ele>1117.2299689139</ele>
        <time>2022-01-20T18:30:30.934Z</time>
      </trkpt>
      <trkpt lat="46.21174" lon="6.7411">
        <ele>1119.8039212108</ele>
        <time>2022-01-20T18:30:38.384Z</time>
      </trkpt>
      <trkpt lat="46.21181" lon="6.74208">
        <ele>1122.258559887</ele>
        <time>2022-01-20T18:30:45.845Z</time>
      </trkpt>
      <trkpt lat="46.21186" lon="6.74239">
        <ele>1124.6372431875</ele>
        <time>2022-01-20T18:30:53.310Z</time>
      </trkpt>
      <trkpt lat="46.21192" lon="6.74255">
        <ele>1127.1036646658</ele>
        <time>2022-01-20T18:31:00.777Z</time>
      </trkpt>
      <trkpt lat="46.21196" lon="6.74262">
        <ele>1129.6211917682</ele>
        <time>2022-01-20T18:31:08.245Z</time>
      </trkpt>
      <trkpt lat="46.21202" lon="6.74269">
        <ele>1132.1701929263</ele>
        <time>2022-01-20T18:31:15.714Z</time>
      </trkpt>
      <trkpt lat="46.21223" lon="6.74287">
        <ele>1134.9621766696</ele>
        <time>2022-01-20T18:31:23.187Z</time>
      </trkpt>
      <trkpt lat="46.21227" lon="6.74292">
        <ele>1137.4785849856</ele>
        <time>2022-01-20T18:31:30.661Z</time>
      </trkpt>
      <trkpt lat="46.21235" lon="6.74307">
        <ele>1140.0183794749</ele>
        <time>2022-01-20T18:31:38.137Z</time>
      </trkpt>
      <trkpt lat="46.21238" lon="6.74325">
        <ele>1142.4229620735</ele>
        <time>2022-01-20T18:31:45.615Z</time>
      </trkpt>
      <trkpt lat="46.2124" lon="6.74375">
        <ele>1144.6542676169</ele>
        <time>2022-01-20T18:31:53.099Z</time>
      </trkpt>
      <trkpt lat="46.21244" lon="6.7439">
        <ele>1147.0711040838</ele>
        <time>2022-01-20T18:32:00.584Z</time>
      </trkpt>
      <trkpt lat="46.21244" lon="6.7439">
        <ele>1149.4101117542</ele>
        <time>2022-01-20T18:32:08.069Z</time>
      </trkpt>
      <trkpt lat="46.21259" lon="6.74438">
        <ele>1151.8266205918</ele>
        <time>2022-01-20T18:32:15.560Z</time>
      </trkpt>
      <trkpt lat="46.21263" lon="6.74459">
        <ele>1154.1798177954</ele>
        <time>2022-01-20T18:32:23.054Z</time>
      </trkpt>
      <trkpt lat="46.21262" lon="6.7448">
        <ele>1156.4993746974</ele>
        <time>2022-01-20T18:32:30.550Z</time>
      </trkpt>
      <trkpt lat="46.21258" lon="6.74523">
        <ele>1158.7744784146</ele>
        <time>2022-01-20T18:32:38.051Z</time>
      </trkpt>
      <trkpt lat="46.21259" lon="6.7454">
        <ele>1161.0048950846</ele>
        <time>2022-01-20T18:32:45.554Z</time>
      </trkpt>
      <trkpt lat="46.21294" lon="6.74668">
        <ele>1163.2234357844</ele>
        <time>2022-01-20T18:32:53.072Z</time>
      </trkpt>
      <trkpt lat="46.21303" lon="6.74691">
        <ele>1165.3886659373</ele>
        <time>2022-01-20T18:33:00.593Z</time>
      </trkpt>
      <trkpt lat="46.21313" lon="6.74711">
        <ele>1167.5513262372</ele>
        <time>2022-01-20T18:33:08.117Z</time>
      </trkpt>
      <trkpt lat="46.2132" lon="6.7472">
        <ele>1169.6908272618</ele>
        <time>2022-01-20T18:33:15.642Z</time>
      </trkpt>
      <trkpt lat="46.21356" lon="6.74764">
        <ele>1172.2801665684</ele>
        <time>2022-01-20T18:33:23.175Z</time>
      </trkpt>
      <trkpt lat="46.2137" lon="6.74787">
        <ele>1174.3421099233</ele>
        <time>2022-01-20T18:33:30.711Z</time>
      </trkpt>
      <trkpt lat="46.21385" lon="6.74815">
        <ele>1176.3441464816</ele>
        <time>2022-01-20T18:33:38.251Z</time>
      </trkpt>
      <trkpt lat="46.21432" lon="6.74927">
        <ele>1178.1261290797</ele>
        <time>2022-01-20T18:33:45.806Z</time>
      </trkpt>
      <trkpt lat="46.21441" lon="6.74951">
        <ele>1179.9341254048</ele>
        <time>2022-01-20T18:33:53.364Z</time>
      </trkpt>
      <trkpt lat="46.21449" lon="6.74991">
        <ele>1181.7283857439</ele>
        <time>2022-01-20T18:34:00.926Z</time>
      </trkpt>
      <trkpt lat="46.21455" lon="6.75011">
        <ele>1183.3953252156</ele>
        <time>2022-01-20T18:34:08.491Z</time>
      </trkpt>
      <trkpt lat="46.21473" lon="6.75048">
        <ele>1185.1396567008</ele>
        <time>2022-01-20T18:34:16.061Z</time>
      </trkpt>
      <trkpt lat="46.21491" lon="6.75084">
        <ele>1186.7071634839</ele>
        <time>2022-01-20T18:34:23.636Z</time>
      </trkpt>
      <trkpt lat="46.21508" lon="6.75121">
        <ele>1188.0464474006</ele>
        <time>2022-01-20T18:34:31.216Z</time>
      </trkpt>
      <trkpt lat="46.21519" lon="6.75156">
        <ele>1189.2403148176</ele>
        <time>2022-01-20T18:34:38.800Z</time>
      </trkpt>
      <trkpt lat="46.21521" lon="6.75182">
        <ele>1190.5099952072</ele>
        <time>2022-01-20T18:34:46.387Z</time>
      </trkpt>
      <trkpt lat="46.21522" lon="6.75221">
        <ele>1191.9041910665</ele>
        <time>2022-01-20T18:34:53.978Z</time>
      </trkpt>
      <trkpt lat="46.21529" lon="6.75279">
        <ele>1193.2179656301</ele>
        <time>2022-01-20T18:35:01.576Z</time>
      </trkpt>
      <trkpt lat="46.21528" lon="6.75302">
        <ele>1194.2627407868</ele>
        <time>2022-01-20T18:35:09.176Z</time>
      </trkpt>
      <trkpt lat="46.21524" lon="6.75324">
        <ele>1195.243597884</ele>
        <time>2022-01-20T18:35:16.779Z</time>
      </trkpt>
      <trkpt lat="46.21513" lon="6.75367">
        <ele>1196.1342617935</ele>
        <time>2022-01-20T18:35:24.387Z</time>
      </trkpt>
      <trkpt lat="46.21509" lon="6.75397">
        <ele>1197.2777058668</ele>
        <time>2022-01-20T18:35:31.998Z</time>
      </trkpt>
      <trkpt lat="46.21509" lon="6.75463">
        <ele>1198.7436621464</ele>
        <time>2022-01-20T18:35:39.617Z</time>
      </trkpt>
      <trkpt lat="46.21508" lon="6.75483">
        <ele>1199.9949638279</ele>
        <time>2022-01-20T18:35:47.238Z</time>
      </trkpt>
      <trkpt lat="46.21498" lon="6.75519">
        <ele>1201.2037332604</ele>
        <time>2022-01-20T18:35:54.863Z</time>
      </trkpt>
      <trkpt lat="46.21495" lon="6.75526">
        <ele>1202.4928879518</ele>
        <time>2022-01-20T18:36:02.489Z</time>
      </trkpt>
      <trkpt lat="46.21492" lon="6.7554">
        <ele>1203.8574771421</ele>
        <time>2022-01-20T18:36:10.117Z</time>
      </trkpt>
      <trkpt lat="46.2149" lon="6.75569">
        <ele>1205.3679808309</ele>
        <time>2022-01-20T18:36:17.748Z</time>
      </trkpt>
      <trkpt lat="46.21491" lon="6.75608">
        <ele>1206.9039784735</ele>
        <time>2022-01-20T18:36:25.383Z</time>
      </trkpt>
      <trkpt lat="46.21494" lon="6.75633">
        <ele>1208.4592598808</ele>
        <time>2022-01-20T18:36:33.021Z</time>
      </trkpt>
      <trkpt lat="46.21517" lon="6.75725">
        <ele>1210.0391190658</ele>
        <time>2022-01-20T18:36:40.670Z</time>
      </trkpt>
      <trkpt lat="46.21533" lon="6.75765">
        <ele>1211.9829589426</ele>
        <time>2022-01-20T18:36:48.324Z</time>
      </trkpt>
      <trkpt lat="46.21568" lon="6.75881">
        <ele>1214.1678168231</ele>
        <time>2022-01-20T18:36:55.992Z</time>
      </trkpt>
      <trkpt lat="46.21578" lon="6.75915">
        <ele>1216.290583993</ele>
        <time>2022-01-20T18:37:03.664Z</time>
      </trkpt>
      <trkpt lat="46.21581" lon="6.75937">
        <ele>1218.403892767</ele>
        <time>2022-01-20T18:37:11.339Z</time>
      </trkpt>
      <trkpt lat="46.21581" lon="6.75937">
        <ele>1220.4525977396</ele>
        <time>2022-01-20T18:37:19.014Z</time>
      </trkpt>
      <trkpt lat="46.21582" lon="6.75955">
        <ele>1222.628014188</ele>
        <time>2022-01-20T18:37:26.691Z</time>
      </trkpt>
      <trkpt lat="46.21574" lon="6.76027">
        <ele>1224.927081456</ele>
        <time>2022-01-20T18:37:34.376Z</time>
      </trkpt>
      <trkpt lat="46.21572" lon="6.76035">
        <ele>1227.1323639717</ele>
        <time>2022-01-20T18:37:42.062Z</time>
      </trkpt>
      <trkpt lat="46.21554" lon="6.76074">
        <ele>1229.3036347959</ele>
        <time>2022-01-20T18:37:49.753Z</time>
      </trkpt>
      <trkpt lat="46.21554" lon="6.7608">
        <ele>1231.6047262848</ele>
        <time>2022-01-20T18:37:57.444Z</time>
      </trkpt>
      <trkpt lat="46.21559" lon="6.76116">
        <ele>1234.0897083579</ele>
        <time>2022-01-20T18:38:05.140Z</time>
      </trkpt>
      <trkpt lat="46.21558" lon="6.7613">
        <ele>1236.51851671</ele>
        <time>2022-01-20T18:38:12.837Z</time>
      </trkpt>
      <trkpt lat="46.21536" lon="6.76191">
        <ele>1238.9566282954</ele>
        <time>2022-01-20T18:38:20.542Z</time>
      </trkpt>
      <trkpt lat="46.21536" lon="6.76191">
        <ele>1241.4239029058</ele>
        <time>2022-01-20T18:38:28.247Z</time>
      </trkpt>
      <trkpt lat="46.2153" lon="6.7621">
        <ele>1243.8864471508</ele>
        <time>2022-01-20T18:38:35.954Z</time>
      </trkpt>
      <trkpt lat="46.21524" lon="6.76236">
        <ele>1246.6361100209</ele>
        <time>2022-01-20T18:38:43.664Z</time>
      </trkpt>
      <trkpt lat="46.21521" lon="6.76265">
        <ele>1249.4846240774</ele>
        <time>2022-01-20T18:38:51.377Z</time>
      </trkpt>
      <trkpt lat="46.21517" lon="6.76287">
        <ele>1252.1977876405</ele>
        <time>2022-01-20T18:38:59.093Z</time>
      </trkpt>
      <trkpt lat="46.21504" lon="6.76324">
        <ele>1254.9264499235</ele>
        <time>2022-01-20T18:39:06.814Z</time>
      </trkpt>
      <trkpt lat="46.21494" lon="6.76346">
        <ele>1257.5692659035</ele>
        <time>2022-01-20T18:39:14.537Z</time>
      </trkpt>
      <trkpt lat="46.2148" lon="6.76364">
        <ele>1260.3411037249</ele>
        <time>2022-01-20T18:39:22.263Z</time>
      </trkpt>
      <trkpt lat="46.21476" lon="6.76373">
        <ele>1263.1918184814</ele>
        <time>2022-01-20T18:39:29.991Z</time>
      </trkpt>
      <trkpt lat="46.21459" lon="6.7642">
        <ele>1266.2116743669</ele>
        <time>2022-01-20T18:39:37.724Z</time>
      </trkpt>
      <trkpt lat="46.21383" lon="6.76537">
        <ele>1269.4077839128</ele>
        <time>2022-01-20T18:39:45.475Z</time>
      </trkpt>
      <trkpt lat="46.21355" lon="6.76566">
        <ele>1272.3440538514</ele>
        <time>2022-01-20T18:39:53.232Z</time>
      </trkpt>
      <trkpt lat="46.21355" lon="6.76576">
        <ele>1275.385040977</ele>
        <time>2022-01-20T18:40:00.990Z</time>
      </trkpt>
      <trkpt lat="46.2136" lon="6.76582">
        <ele>1278.4432105837</ele>
        <time>2022-01-20T18:40:08.749Z</time>
      </trkpt>
      <trkpt lat="46.21366" lon="6.76581">
        <ele>1281.4355291899</ele>
        <time>2022-01-20T18:40:16.509Z</time>
      </trkpt>
      <trkpt lat="46.21401" lon="6.7654">
        <ele>1284.3956231382</ele>
        <time>2022-01-20T18:40:24.276Z</time>
      </trkpt>
      <trkpt lat="46.21471" lon="6.76477">
        <ele>1287.5454759738</ele>
        <time>2022-01-20T18:40:32.056Z</time>
      </trkpt>
      <trkpt lat="46.21479" lon="6.7647">
        <ele>1290.4102764245</ele>
        <time>2022-01-20T18:40:39.838Z</time>
      </trkpt>
      <trkpt lat="46.21517" lon="6.76448">
        <ele>1293.3912948069</ele>
        <time>2022-01-20T18:40:47.626Z</time>
      </trkpt>
      <trkpt lat="46.21545" lon="6.76408">
        <ele>1296.0242183616</ele>
        <time>2022-01-20T18:40:55.421Z</time>
      </trkpt>
      <trkpt lat="46.21552" lon="6.76395">
        <ele>1298.6501409261</ele>
        <time>2022-01-20T18:41:03.218Z</time>
      </trkpt>
      <trkpt lat="46.21566" lon="6.76361">
        <ele>1301.1137337976</ele>
        <time>2022-01-20T18:41:11.019Z</time>
      </trkpt>
      <trkpt lat="46.21571" lon="6.76357">
        <ele>1303.4558249511</ele>
        <time>2022-01-20T18:41:18.821Z</time>
      </trkpt>
      <trkpt lat="46.21576" lon="6.76358">
        <ele>1305.7270155189</ele>
        <time>2022-01-20T18:41:26.624Z</time>
      </trkpt>
      <trkpt lat="46.21578" lon="6.76361">
        <ele>1307.8372777889</ele>
        <time>2022-01-20T18:41:34.427Z</time>
      </trkpt>
      <trkpt lat="46.21578" lon="6.76365">
        <ele>1309.7714791789</ele>
        <time>2022-01-20T18:41:42.231Z</time>
      </trkpt>
      <trkpt lat="46.21576" lon="6.76376">
        <ele>1311.5816598228</ele>
        <time>2022-01-20T18:41:50.036Z</time>
      </trkpt>
      <trkpt lat="46.21563" lon="6.7641">
        <ele>1313.2868386623</ele>
        <time>2022-01-20T18:41:57.845Z</time>
      </trkpt>
      <trkpt lat="46.21529" lon="6.76514">
        <ele>1315.1435361739</ele>
        <time>2022-01-20T18:42:05.667Z</time>
      </trkpt>
      <trkpt lat="46.21527" lon="6.76519">
        <ele>1316.4136482059</ele>
        <time>2022-01-20T18:42:13.490Z</time>
      </trkpt>
      <trkpt lat="46.21519" lon="6.76525">
        <ele>1317.4525207012</ele>
        <time>2022-01-20T18:42:21.314Z</time>
      </trkpt>
      <trkpt lat="46.21516" lon="6.76527">
        <ele>1318.4144951576</ele>
        <time>2022-01-20T18:42:29.139Z</time>
      </trkpt>
      <trkpt lat="46.21507" lon="6.76525">
        <ele>1319.1712163795</ele>
        <time>2022-01-20T18:42:36.965Z</time>
      </trkpt>
      <trkpt lat="46.21491" lon="6.76526">
        <ele>1319.7550703976</ele>
        <time>2022-01-20T18:42:44.794Z</time>
      </trkpt>
      <trkpt lat="46.21487" lon="6.76535">
        <ele>1320.4174664926</ele>
        <time>2022-01-20T18:42:52.624Z</time>
      </trkpt>
      <trkpt lat="46.21488" lon="6.76545">
        <ele>1321.0565991551</ele>
        <time>2022-01-20T18:43:00.455Z</time>
      </trkpt>
      <trkpt lat="46.21498" lon="6.76557">
        <ele>1321.7082874699</ele>
        <time>2022-01-20T18:43:08.288Z</time>
      </trkpt>
      <trkpt lat="46.21505" lon="6.7657">
        <ele>1322.2986580781</ele>
        <time>2022-01-20T18:43:16.123Z</time>
      </trkpt>
      <trkpt lat="46.21508" lon="6.76581">
        <ele>1322.8232564681</ele>
        <time>2022-01-20T18:43:23.959Z</time>
      </trkpt>
      <trkpt lat="46.21505" lon="6.76592">
        <ele>1323.2970751177</ele>
        <time>2022-01-20T18:43:31.796Z</time>
      </trkpt>
      <trkpt lat="46.21499" lon="6.76596">
        <ele>1323.7516131387</ele>
        <time>2022-01-20T18:43:39.635Z</time>
      </trkpt>
      <trkpt lat="46.21494" lon="6.76594">
        <ele>1324.1789030935</ele>
        <time>2022-01-20T18:43:47.474Z</time>
      </trkpt>
      <trkpt lat="46.21491" lon="6.7659">
        <ele>1324.6673309925</ele>
        <time>2022-01-20T18:43:55.314Z</time>
      </trkpt>
      <trkpt lat="46.21474" lon="6.76555">
        <ele>1325.008770751</ele>
        <time>2022-01-20T18:44:03.159Z</time>
      </trkpt>
      <trkpt lat="46.21468" lon="6.76554">
        <ele>1325.6643582557</ele>
        <time>2022-01-20T18:44:11.005Z</time>
      </trkpt>
      <trkpt lat="46.21463" lon="6.76557">
        <ele>1326.4632641288</ele>
        <time>2022-01-20T18:44:18.852Z</time>
      </trkpt>
      <trkpt lat="46.21461" lon="6.76564">
        <ele>1327.4244204497</ele>
        <time>2022-01-20T18:44:26.699Z</time>
      </trkpt>
      <trkpt lat="46.21462" lon="6.7657">
        <ele>1328.5327194415</ele>
        <time>2022-01-20T18:44:34.547Z</time>
      </trkpt>
      <trkpt lat="46.21476" lon="6.76594">
        <ele>1329.9066332431</ele>
        <time>2022-01-20T18:44:42.399Z</time>
      </trkpt>
      <trkpt lat="46.21476" lon="6.766">
        <ele>1331.2244780291</ele>
        <time>2022-01-20T18:44:50.251Z</time>
      </trkpt>
      <trkpt lat="46.21474" lon="6.76613">
        <ele>1332.7475303978</ele>
        <time>2022-01-20T18:44:58.105Z</time>
      </trkpt>
      <trkpt lat="46.21471" lon="6.76622">
        <ele>1334.3819027508</ele>
        <time>2022-01-20T18:45:05.960Z</time>
      </trkpt>
      <trkpt lat="46.2145" lon="6.76652">
        <ele>1336.3382496627</ele>
        <time>2022-01-20T18:45:13.819Z</time>
      </trkpt>
      <trkpt lat="46.21449" lon="6.7667">
        <ele>1338.1353596611</ele>
        <time>2022-01-20T18:45:21.680Z</time>
      </trkpt>
      <trkpt lat="46.2145" lon="6.76679">
        <ele>1339.941205535</ele>
        <time>2022-01-20T18:45:29.543Z</time>
      </trkpt>
      <trkpt lat="46.21473" lon="6.76704">
        <ele>1341.9225924073</ele>
        <time>2022-01-20T18:45:37.410Z</time>
      </trkpt>
      <trkpt lat="46.21489" lon="6.76713">
        <ele>1343.9534772622</ele>
        <time>2022-01-20T18:45:45.280Z</time>
      </trkpt>
      <trkpt lat="46.21491" lon="6.76719">
        <ele>1345.9301271671</ele>
        <time>2022-01-20T18:45:53.151Z</time>
      </trkpt>
      <trkpt lat="46.2149" lon="6.7673">
        <ele>1347.9244659712</ele>
        <time>2022-01-20T18:46:01.023Z</time>
      </trkpt>
      <trkpt lat="46.21488" lon="6.76733">
        <ele>1349.9124255008</ele>
        <time>2022-01-20T18:46:08.895Z</time>
      </trkpt>
      <trkpt lat="46.21453" lon="6.76756">
        <ele>1351.650979269</ele>
        <time>2022-01-20T18:46:16.774Z</time>
      </trkpt>
      <trkpt lat="46.21438" lon="6.76774">
        <ele>1353.5459104214</ele>
        <time>2022-01-20T18:46:24.656Z</time>
      </trkpt>
      <trkpt lat="46.2141" lon="6.76831">
        <ele>1355.5478800573</ele>
        <time>2022-01-20T18:46:32.545Z</time>
      </trkpt>
      <trkpt lat="46.21382" lon="6.76898">
        <ele>1358.0809221452</ele>
        <time>2022-01-20T18:46:40.443Z</time>
      </trkpt>
      <trkpt lat="46.21365" lon="6.76924">
        <ele>1360.2962912729</ele>
        <time>2022-01-20T18:46:48.345Z</time>
      </trkpt>
      <trkpt lat="46.21362" lon="6.76934">
        <ele>1362.3852150323</ele>
        <time>2022-01-20T18:46:56.248Z</time>
      </trkpt>
      <trkpt lat="46.21365" lon="6.7694">
        <ele>1364.4403766386</ele>
        <time>2022-01-20T18:47:04.152Z</time>
      </trkpt>
      <trkpt lat="46.21366" lon="6.76942">
        <ele>1366.4436128125</ele>
        <time>2022-01-20T18:47:12.056Z</time>
      </trkpt>
      <trkpt lat="46.21374" lon="6.76942">
        <ele>1368.4156084958</ele>
        <time>2022-01-20T18:47:19.962Z</time>
      </trkpt>
      <trkpt lat="46.21391" lon="6.76923">
        <ele>1370.3050259161</ele>
        <time>2022-01-20T18:47:27.871Z</time>
      </trkpt>
      <trkpt lat="46.21447" lon="6.76882">
        <ele>1372.3057373831</ele>
        <time>2022-01-20T18:47:35.790Z</time>
      </trkpt>
      <trkpt lat="46.21456" lon="6.76878">
        <ele>1374.320009346</ele>
        <time>2022-01-20T18:47:43.711Z</time>
      </trkpt>
      <trkpt lat="46.21461" lon="6.76879">
        <ele>1376.1807664773</ele>
        <time>2022-01-20T18:47:51.633Z</time>
      </trkpt>
      <trkpt lat="46.21464" lon="6.76882">
        <ele>1377.8766202193</ele>
        <time>2022-01-20T18:47:59.555Z</time>
      </trkpt>
      <trkpt lat="46.21465" lon="6.76888">
        <ele>1379.3909341419</ele>
        <time>2022-01-20T18:48:07.478Z</time>
      </trkpt>
      <trkpt lat="46.21464" lon="6.76893">
        <ele>1380.7493740005</ele>
        <time>2022-01-20T18:48:15.401Z</time>
      </trkpt>
      <trkpt lat="46.2146" lon="6.76898">
        <ele>1381.9169488606</ele>
        <time>2022-01-20T18:48:23.325Z</time>
      </trkpt>
      <trkpt lat="46.21445" lon="6.76909">
        <ele>1382.7555692978</ele>
        <time>2022-01-20T18:48:31.252Z</time>
      </trkpt>
      <trkpt lat="46.21438" lon="6.76919">
        <ele>1383.8069355152</ele>
        <time>2022-01-20T18:48:39.181Z</time>
      </trkpt>
      <trkpt lat="46.2142" lon="6.7695">
        <ele>1384.8754105961</ele>
        <time>2022-01-20T18:48:47.114Z</time>
      </trkpt>
      <trkpt lat="46.21415" lon="6.76964">
        <ele>1385.8590764944</ele>
        <time>2022-01-20T18:48:55.049Z</time>
      </trkpt>
      <trkpt lat="46.21411" lon="6.76981">
        <ele>1386.8213364918</ele>
        <time>2022-01-20T18:49:02.986Z</time>
      </trkpt>
      <trkpt lat="46.21406" lon="6.7701">
        <ele>1387.8380667802</ele>
        <time>2022-01-20T18:49:10.926Z</time>
      </trkpt>
      <trkpt lat="46.21402" lon="6.7702">
        <ele>1388.7130410614</ele>
        <time>2022-01-20T18:49:18.867Z</time>
      </trkpt>
      <trkpt lat="46.21395" lon="6.77028">
        <ele>1389.5658486611</ele>
        <time>2022-01-20T18:49:26.810Z</time>
      </trkpt>
      <trkpt lat="46.21366" lon="6.77045">
        <ele>1390.3945911745</ele>
        <time>2022-01-20T18:49:34.758Z</time>
      </trkpt>
      <trkpt lat="46.21355" lon="6.77055">
        <ele>1391.2208465019</ele>
        <time>2022-01-20T18:49:42.708Z</time>
      </trkpt>
      <trkpt lat="46.2135" lon="6.77061">
        <ele>1392.0453364304</ele>
        <time>2022-01-20T18:49:50.659Z</time>
      </trkpt>
      <trkpt lat="46.21335" lon="6.77086">
        <ele>1392.989524159</ele>
        <time>2022-01-20T18:49:58.614Z</time>
      </trkpt>
      <trkpt lat="46.21332" lon="6.77096">
        <ele>1393.8784734657</ele>
        <time>2022-01-20T18:50:06.570Z</time>
      </trkpt>
      <trkpt lat="46.21333" lon="6.77103">
        <ele>1394.7716252491</ele>
        <time>2022-01-20T18:50:14.527Z</time>
      </trkpt>
      <trkpt lat="46.21335" lon="6.77105">
        <ele>1395.6149922588</ele>
        <time>2022-01-20T18:50:22.484Z</time>
      </trkpt>
      <trkpt lat="46.21341" lon="6.77106">
        <ele>1396.5380363183</ele>
        <time>2022-01-20T18:50:30.442Z</time>
      </trkpt>
      <trkpt lat="46.21347" lon="6.771">
        <ele>1397.3495778374</ele>
        <time>2022-01-20T18:50:38.401Z</time>
      </trkpt>
      <trkpt lat="46.2136" lon="6.77075">
        <ele>1398.0034538286</ele>
        <time>2022-01-20T18:50:46.364Z</time>
      </trkpt>
      <trkpt lat="46.21365" lon="6.77071">
        <ele>1398.9139851693</ele>
        <time>2022-01-20T18:50:54.328Z</time>
      </trkpt>
      <trkpt lat="46.2137" lon="6.77069">
        <ele>1399.9219099935</ele>
        <time>2022-01-20T18:51:02.292Z</time>
      </trkpt>
      <trkpt lat="46.21412" lon="6.77066">
        <ele>1401.0471548369</ele>
        <time>2022-01-20T18:51:10.263Z</time>
      </trkpt>
      <trkpt lat="46.21443" lon="6.77045">
        <ele>1402.3661249997</ele>
        <time>2022-01-20T18:51:18.240Z</time>
      </trkpt>
      <trkpt lat="46.21449" lon="6.77049">
        <ele>1403.6634152372</ele>
        <time>2022-01-20T18:51:26.218Z</time>
      </trkpt>
      <trkpt lat="46.21451" lon="6.77056">
        <ele>1405.0272220422</ele>
        <time>2022-01-20T18:51:34.197Z</time>
      </trkpt>
      <trkpt lat="46.2145" lon="6.77061">
        <ele>1406.4381838969</ele>
        <time>2022-01-20T18:51:42.176Z</time>
      </trkpt>
      <trkpt lat="46.21448" lon="6.77068">
        <ele>1407.9519126806</ele>
        <time>2022-01-20T18:51:50.156Z</time>
      </trkpt>
      <trkpt lat="46.21428" lon="6.77081">
        <ele>1409.4319141981</ele>
        <time>2022-01-20T18:51:58.140Z</time>
      </trkpt>
      <trkpt lat="46.21416" lon="6.7709">
        <ele>1411.156331513</ele>
        <time>2022-01-20T18:52:06.126Z</time>
      </trkpt>
      <trkpt lat="46.21405" lon="6.77096">
        <ele>1412.9663076867</ele>
        <time>2022-01-20T18:52:14.114Z</time>
      </trkpt>
      <trkpt lat="46.21395" lon="6.77096">
        <ele>1414.8296678835</ele>
        <time>2022-01-20T18:52:22.103Z</time>
      </trkpt>
      <trkpt lat="46.21387" lon="6.77099">
        <ele>1416.84083593</ele>
        <time>2022-01-20T18:52:30.094Z</time>
      </trkpt>
      <trkpt lat="46.2138" lon="6.77111">
        <ele>1419.0434157105</ele>
        <time>2022-01-20T18:52:38.086Z</time>
      </trkpt>
      <trkpt lat="46.21369" lon="6.77138">
        <ele>1421.5313105337</ele>
        <time>2022-01-20T18:52:46.082Z</time>
      </trkpt>
      <trkpt lat="46.21365" lon="6.77142">
        <ele>1423.8352860257</ele>
        <time>2022-01-20T18:52:54.079Z</time>
      </trkpt>
      <trkpt lat="46.21356" lon="6.77147">
        <ele>1426.2170274205</ele>
        <time>2022-01-20T18:53:02.077Z</time>
      </trkpt>
      <trkpt lat="46.21326" lon="6.77157">
        <ele>1428.4271576891</ele>
        <time>2022-01-20T18:53:10.080Z</time>
      </trkpt>
      <trkpt lat="46.21287" lon="6.77163">
        <ele>1430.92594828</ele>
        <time>2022-01-20T18:53:18.089Z</time>
      </trkpt>
      <trkpt lat="46.21259" lon="6.77161">
        <ele>1433.2429068239</ele>
        <time>2022-01-20T18:53:26.103Z</time>
      </trkpt>
      <trkpt lat="46.21224" lon="6.77166">
        <ele>1435.6871998883</ele>
        <time>2022-01-20T18:53:34.122Z</time>
      </trkpt>
      <trkpt lat="46.21193" lon="6.77183">
        <ele>1438.2763123179</ele>
        <time>2022-01-20T18:53:42.147Z</time>
      </trkpt>
      <trkpt lat="46.21173" lon="6.77203">
        <ele>1440.8408410389</ele>
        <time>2022-01-20T18:53:50.176Z</time>
      </trkpt>
      <trkpt lat="46.21094" lon="6.77301">
        <ele>1444.1057723768</ele>
        <time>2022-01-20T18:53:58.221Z</time>
      </trkpt>
      <trkpt lat="46.21086" lon="6.77304">
        <ele>1446.4571934992</ele>
        <time>2022-01-20T18:54:06.268Z</time>
      </trkpt>
      <trkpt lat="46.21064" lon="6.77296">
        <ele>1448.6460580069</ele>
        <time>2022-01-20T18:54:14.318Z</time>
      </trkpt>
      <trkpt lat="46.21058" lon="6.77297">
        <ele>1450.8158853193</ele>
        <time>2022-01-20T18:54:22.369Z</time>
      </trkpt>
      <trkpt lat="46.21048" lon="6.77293">
        <ele>1452.8523936996</ele>
        <time>2022-01-20T18:54:30.422Z</time>
      </trkpt>
      <trkpt lat="46.21038" lon="6.77293">
        <ele>1454.811889255</ele>
        <time>2022-01-20T18:54:38.476Z</time>
      </trkpt>
      <trkpt lat="46.21024" lon="6.773">
        <ele>1456.7008412569</ele>
        <time>2022-01-20T18:54:46.533Z</time>
      </trkpt>
      <trkpt lat="46.21012" lon="6.7731">
        <ele>1458.5357283645</ele>
        <time>2022-01-20T18:54:54.592Z</time>
      </trkpt>
      <trkpt lat="46.20999" lon="6.77324">
        <ele>1460.2643603565</ele>
        <time>2022-01-20T18:55:02.654Z</time>
      </trkpt>
      <trkpt lat="46.20998" lon="6.77328">
        <ele>1461.8687824691</ele>
        <time>2022-01-20T18:55:10.716Z</time>
      </trkpt>
      <trkpt lat="46.20999" lon="6.77333">
        <ele>1463.3966790862</ele>
        <time>2022-01-20T18:55:18.779Z</time>
      </trkpt>
      <trkpt lat="46.21021" lon="6.77352">
        <ele>1464.9585198444</ele>
        <time>2022-01-20T18:55:26.846Z</time>
      </trkpt>
      <trkpt lat="46.2103" lon="6.77354">
        <ele>1466.3088175569</ele>
        <time>2022-01-20T18:55:34.914Z</time>
      </trkpt>
      <trkpt lat="46.21042" lon="6.77356">
        <ele>1467.5861402001</ele>
        <time>2022-01-20T18:55:42.984Z</time>
      </trkpt>
      <trkpt lat="46.2107" lon="6.77355">
        <ele>1468.7596509798</ele>
        <time>2022-01-20T18:55:51.059Z</time>
      </trkpt>
      <trkpt lat="46.21072" lon="6.77355">
        <ele>1469.8884613729</ele>
        <time>2022-01-20T18:55:59.134Z</time>
      </trkpt>
      <trkpt lat="46.21072" lon="6.77355">
        <ele>1470.9684968778</ele>
        <time>2022-01-20T18:56:07.209Z</time>
      </trkpt>
      <trkpt lat="46.21072" lon="6.77355">
        <ele>1469.8884613729</ele>
        <time>2022-01-20T18:56:15.284Z</time>
      </trkpt>
      <trkpt lat="46.21085" lon="6.77354">
        <ele>1473.0191105309</ele>
        <time>2022-01-20T18:56:23.361Z</time>
      </trkpt>
      <trkpt lat="46.21094" lon="6.77362">
        <ele>1474.0338578425</ele>
        <time>2022-01-20T18:56:31.440Z</time>
      </trkpt>
      <trkpt lat="46.21099" lon="6.77374">
        <ele>1475.0498742049</ele>
        <time>2022-01-20T18:56:39.520Z</time>
      </trkpt>
      <trkpt lat="46.21099" lon="6.7738">
        <ele>1476.0439996807</ele>
        <time>2022-01-20T18:56:47.601Z</time>
      </trkpt>
      <trkpt lat="46.21094" lon="6.77394">
        <ele>1477.0553234016</ele>
        <time>2022-01-20T18:56:55.684Z</time>
      </trkpt>
      <trkpt lat="46.21079" lon="6.77411">
        <ele>1478.1004925994</ele>
        <time>2022-01-20T18:57:03.770Z</time>
      </trkpt>
      <trkpt lat="46.21067" lon="6.7742">
        <ele>1479.1409514997</ele>
        <time>2022-01-20T18:57:11.858Z</time>
      </trkpt>
      <trkpt lat="46.21029" lon="6.7744">
        <ele>1480.3088876679</ele>
        <time>2022-01-20T18:57:19.953Z</time>
      </trkpt>
      <trkpt lat="46.21009" lon="6.77444">
        <ele>1481.3597091647</ele>
        <time>2022-01-20T18:57:28.051Z</time>
      </trkpt>
      <trkpt lat="46.20988" lon="6.77446">
        <ele>1482.366623206</ele>
        <time>2022-01-20T18:57:36.152Z</time>
      </trkpt>
      <trkpt lat="46.20958" lon="6.77435">
        <ele>1483.3028143664</ele>
        <time>2022-01-20T18:57:44.258Z</time>
      </trkpt>
      <trkpt lat="46.20952" lon="6.77437">
        <ele>1484.3907318827</ele>
        <time>2022-01-20T18:57:52.365Z</time>
      </trkpt>
      <trkpt lat="46.20946" lon="6.77444">
        <ele>1485.5042368305</ele>
        <time>2022-01-20T18:58:00.473Z</time>
      </trkpt>
      <trkpt lat="46.20939" lon="6.77462">
        <ele>1486.688744786</ele>
        <time>2022-01-20T18:58:08.584Z</time>
      </trkpt>
      <trkpt lat="46.20932" lon="6.77471">
        <ele>1487.8043571818</ele>
        <time>2022-01-20T18:58:16.696Z</time>
      </trkpt>
      <trkpt lat="46.20919" lon="6.77482">
        <ele>1488.9301464186</ele>
        <time>2022-01-20T18:58:24.810Z</time>
      </trkpt>
      <trkpt lat="46.20914" lon="6.77485">
        <ele>1490.0432760828</ele>
        <time>2022-01-20T18:58:32.925Z</time>
      </trkpt>
      <trkpt lat="46.2091" lon="6.77493">
        <ele>1491.1652359389</ele>
        <time>2022-01-20T18:58:41.041Z</time>
      </trkpt>
      <trkpt lat="46.20909" lon="6.77505">
        <ele>1492.3172499836</ele>
        <time>2022-01-20T18:58:49.159Z</time>
      </trkpt>
      <trkpt lat="46.20909" lon="6.77516">
        <ele>1493.4851702114</ele>
        <time>2022-01-20T18:58:57.278Z</time>
      </trkpt>
      <trkpt lat="46.20908" lon="6.77525">
        <ele>1494.6428199151</ele>
        <time>2022-01-20T18:59:05.398Z</time>
      </trkpt>
      <trkpt lat="46.20902" lon="6.77535">
        <ele>1495.791551462</ele>
        <time>2022-01-20T18:59:13.519Z</time>
      </trkpt>
      <trkpt lat="46.20888" lon="6.77546">
        <ele>1496.936871812</ele>
        <time>2022-01-20T18:59:21.643Z</time>
      </trkpt>
      <trkpt lat="46.20873" lon="6.77551">
        <ele>1498.0375277432</ele>
        <time>2022-01-20T18:59:29.769Z</time>
      </trkpt>
      <trkpt lat="46.20859" lon="6.77553">
        <ele>1499.1397627601</ele>
        <time>2022-01-20T18:59:37.898Z</time>
      </trkpt>
      <trkpt lat="46.20827" lon="6.77556">
        <ele>1500.2729579128</ele>
        <time>2022-01-20T18:59:46.032Z</time>
      </trkpt>
      <trkpt lat="46.20817" lon="6.77558">
        <ele>1501.4506661823</ele>
        <time>2022-01-20T18:59:54.167Z</time>
      </trkpt>
      <trkpt lat="46.20781" lon="6.77562">
        <ele>1502.7700206157</ele>
        <time>2022-01-20T19:00:02.308Z</time>
      </trkpt>
      <trkpt lat="46.20758" lon="6.77572">
        <ele>1503.9735457482</ele>
        <time>2022-01-20T19:00:10.453Z</time>
      </trkpt>
      <trkpt lat="46.20734" lon="6.77588">
        <ele>1505.0793370909</ele>
        <time>2022-01-20T19:00:18.602Z</time>
      </trkpt>
      <trkpt lat="46.20697" lon="6.77593">
        <ele>1506.2661453104</ele>
        <time>2022-01-20T19:00:26.757Z</time>
      </trkpt>
      <trkpt lat="46.20684" lon="6.77596">
        <ele>1507.4577018509</ele>
        <time>2022-01-20T19:00:34.914Z</time>
      </trkpt>
      <trkpt lat="46.20656" lon="6.7762">
        <ele>1508.6690493891</ele>
        <time>2022-01-20T19:00:43.077Z</time>
      </trkpt>
      <trkpt lat="46.20641" lon="6.7764">
        <ele>1509.8526125581</ele>
        <time>2022-01-20T19:00:51.243Z</time>
      </trkpt>
      <trkpt lat="46.20634" lon="6.77642">
        <ele>1511.0499184331</ele>
        <time>2022-01-20T19:00:59.410Z</time>
      </trkpt>
      <trkpt lat="46.20629" lon="6.77639">
        <ele>1512.2715856793</ele>
        <time>2022-01-20T19:01:07.578Z</time>
      </trkpt>
      <trkpt lat="46.20629" lon="6.77639">
        <ele>1513.4451594846</ele>
        <time>2022-01-20T19:01:15.746Z</time>
      </trkpt>
      <trkpt lat="46.20628" lon="6.77631">
        <ele>1514.678305829</ele>
        <time>2022-01-20T19:01:23.915Z</time>
      </trkpt>
      <trkpt lat="46.20631" lon="6.77621">
        <ele>1515.9055374658</ele>
        <time>2022-01-20T19:01:32.085Z</time>
      </trkpt>
      <trkpt lat="46.20641" lon="6.77613">
        <ele>1517.0597096676</ele>
        <time>2022-01-20T19:01:40.257Z</time>
      </trkpt>
      <trkpt lat="46.2066" lon="6.77594">
        <ele>1518.2422567685</ele>
        <time>2022-01-20T19:01:48.433Z</time>
      </trkpt>
      <trkpt lat="46.20679" lon="6.7757">
        <ele>1519.5469917781</ele>
        <time>2022-01-20T19:01:56.613Z</time>
      </trkpt>
      <trkpt lat="46.2069" lon="6.77564">
        <ele>1520.781980729</ele>
        <time>2022-01-20T19:02:04.795Z</time>
      </trkpt>
      <trkpt lat="46.20714" lon="6.77554">
        <ele>1522.0174304353</ele>
        <time>2022-01-20T19:02:12.981Z</time>
      </trkpt>
      <trkpt lat="46.20755" lon="6.77522">
        <ele>1523.4613916916</ele>
        <time>2022-01-20T19:02:21.174Z</time>
      </trkpt>
      <trkpt lat="46.2078" lon="6.77498">
        <ele>1524.6939034869</ele>
        <time>2022-01-20T19:02:29.372Z</time>
      </trkpt>
      <trkpt lat="46.2081" lon="6.77473">
        <ele>1525.9912035631</ele>
        <time>2022-01-20T19:02:37.575Z</time>
      </trkpt>
      <trkpt lat="46.20842" lon="6.77432">
        <ele>1527.1756072071</ele>
        <time>2022-01-20T19:02:45.785Z</time>
      </trkpt>
      <trkpt lat="46.20854" lon="6.77382">
        <ele>1528.6081815816</ele>
        <time>2022-01-20T19:02:54.001Z</time>
      </trkpt>
      <trkpt lat="46.20855" lon="6.77336">
        <ele>1530.0054081975</ele>
        <time>2022-01-20T19:03:02.222Z</time>
      </trkpt>
      <trkpt lat="46.20851" lon="6.7732">
        <ele>1531.3223783078</ele>
        <time>2022-01-20T19:03:10.445Z</time>
      </trkpt>
      <trkpt lat="46.20847" lon="6.77317">
        <ele>1532.5871884368</ele>
        <time>2022-01-20T19:03:18.669Z</time>
      </trkpt>
      <trkpt lat="46.20841" lon="6.77315">
        <ele>1533.8437690071</ele>
        <time>2022-01-20T19:03:26.894Z</time>
      </trkpt>
      <trkpt lat="46.20818" lon="6.77329">
        <ele>1535.1499625965</ele>
        <time>2022-01-20T19:03:35.123Z</time>
      </trkpt>
      <trkpt lat="46.20812" lon="6.77329">
        <ele>1536.3785309356</ele>
        <time>2022-01-20T19:03:43.353Z</time>
      </trkpt>
      <trkpt lat="46.20807" lon="6.77326">
        <ele>1537.5706917419</ele>
        <time>2022-01-20T19:03:51.584Z</time>
      </trkpt>
      <trkpt lat="46.20801" lon="6.77318">
        <ele>1538.7403765119</ele>
        <time>2022-01-20T19:03:59.816Z</time>
      </trkpt>
      <trkpt lat="46.208" lon="6.77301">
        <ele>1539.8636411816</ele>
        <time>2022-01-20T19:04:08.050Z</time>
      </trkpt>
      <trkpt lat="46.20807" lon="6.77238">
        <ele>1540.9318813376</ele>
        <time>2022-01-20T19:04:16.291Z</time>
      </trkpt>
      <trkpt lat="46.20805" lon="6.77226">
        <ele>1542.0017316915</ele>
        <time>2022-01-20T19:04:24.533Z</time>
      </trkpt>
      <trkpt lat="46.20802" lon="6.77218">
        <ele>1543.0379898105</ele>
        <time>2022-01-20T19:04:32.776Z</time>
      </trkpt>
      <trkpt lat="46.20795" lon="6.77209">
        <ele>1544.0690831325</ele>
        <time>2022-01-20T19:04:41.021Z</time>
      </trkpt>
      <trkpt lat="46.2079" lon="6.77208">
        <ele>1545.0400911985</ele>
        <time>2022-01-20T19:04:49.267Z</time>
      </trkpt>
      <trkpt lat="46.20755" lon="6.77209">
        <ele>1546.0628835371</ele>
        <time>2022-01-20T19:04:57.518Z</time>
      </trkpt>
      <trkpt lat="46.2074" lon="6.77199">
        <ele>1546.9819980083</ele>
        <time>2022-01-20T19:05:05.772Z</time>
      </trkpt>
      <trkpt lat="46.20713" lon="6.77164">
        <ele>1547.8743041136</ele>
        <time>2022-01-20T19:05:14.032Z</time>
      </trkpt>
      <trkpt lat="46.20698" lon="6.77139">
        <ele>1548.8833044565</ele>
        <time>2022-01-20T19:05:22.295Z</time>
      </trkpt>
      <trkpt lat="46.20697" lon="6.77126">
        <ele>1549.783985392</ele>
        <time>2022-01-20T19:05:30.560Z</time>
      </trkpt>
      <trkpt lat="46.20698" lon="6.77118">
        <ele>1550.6599317547</ele>
        <time>2022-01-20T19:05:38.826Z</time>
      </trkpt>
      <trkpt lat="46.20702" lon="6.77108">
        <ele>1551.5268559493</ele>
        <time>2022-01-20T19:05:47.093Z</time>
      </trkpt>
      <trkpt lat="46.20703" lon="6.77106">
        <ele>1552.4011761317</ele>
        <time>2022-01-20T19:05:55.360Z</time>
      </trkpt>
      <trkpt lat="46.20722" lon="6.77061">
        <ele>1553.2772882288</ele>
        <time>2022-01-20T19:06:03.633Z</time>
      </trkpt>
      <trkpt lat="46.20731" lon="6.77045">
        <ele>1554.1582366579</ele>
        <time>2022-01-20T19:06:11.908Z</time>
      </trkpt>
      <trkpt lat="46.20733" lon="6.77038">
        <ele>1555.0696203984</ele>
        <time>2022-01-20T19:06:20.184Z</time>
      </trkpt>
      <trkpt lat="46.20734" lon="6.77022">
        <ele>1556.0540392006</ele>
        <time>2022-01-20T19:06:28.462Z</time>
      </trkpt>
      <trkpt lat="46.20734" lon="6.77022">
        <ele>1557.0224659552</ele>
        <time>2022-01-20T19:06:36.740Z</time>
      </trkpt>
      <trkpt lat="46.20732" lon="6.76963">
        <ele>1558.1901734537</ele>
        <time>2022-01-20T19:06:45.025Z</time>
      </trkpt>
      <trkpt lat="46.20733" lon="6.76903">
        <ele>1559.2301946546</ele>
        <time>2022-01-20T19:06:53.316Z</time>
      </trkpt>
      <trkpt lat="46.20723" lon="6.76861">
        <ele>1560.2814821732</ele>
        <time>2022-01-20T19:07:01.612Z</time>
      </trkpt>
      <trkpt lat="46.20711" lon="6.76819">
        <ele>1561.2838895387</ele>
        <time>2022-01-20T19:07:09.913Z</time>
      </trkpt>
      <trkpt lat="46.20685" lon="6.7679">
        <ele>1562.5478822509</ele>
        <time>2022-01-20T19:07:18.219Z</time>
      </trkpt>
      <trkpt lat="46.20677" lon="6.76776">
        <ele>1563.6623516801</ele>
        <time>2022-01-20T19:07:26.527Z</time>
      </trkpt>
      <trkpt lat="46.20673" lon="6.76752">
        <ele>1564.7414487279</ele>
        <time>2022-01-20T19:07:34.838Z</time>
      </trkpt>
      <trkpt lat="46.20673" lon="6.7672">
        <ele>1565.7746057083</ele>
        <time>2022-01-20T19:07:43.153Z</time>
      </trkpt>
      <trkpt lat="46.20677" lon="6.76696">
        <ele>1566.7798763347</ele>
        <time>2022-01-20T19:07:51.471Z</time>
      </trkpt>
      <trkpt lat="46.20689" lon="6.76673">
        <ele>1567.7328939098</ele>
        <time>2022-01-20T19:07:59.792Z</time>
      </trkpt>
      <trkpt lat="46.20695" lon="6.76645">
        <ele>1568.7710132299</ele>
        <time>2022-01-20T19:08:08.116Z</time>
      </trkpt>
      <trkpt lat="46.20722" lon="6.76599">
        <ele>1569.7080175751</ele>
        <time>2022-01-20T19:08:16.447Z</time>
      </trkpt>
      <trkpt lat="46.20739" lon="6.76563">
        <ele>1570.5802728579</ele>
        <time>2022-01-20T19:08:24.783Z</time>
      </trkpt>
      <trkpt lat="46.20758" lon="6.76505">
        <ele>1571.4719880418</ele>
        <time>2022-01-20T19:08:33.126Z</time>
      </trkpt>
      <trkpt lat="46.20765" lon="6.76477">
        <ele>1572.4446770778</ele>
        <time>2022-01-20T19:08:41.472Z</time>
      </trkpt>
      <trkpt lat="46.20767" lon="6.7644">
        <ele>1573.3665459989</ele>
        <time>2022-01-20T19:08:49.822Z</time>
      </trkpt>
      <trkpt lat="46.20765" lon="6.76423">
        <ele>1574.2659219122</ele>
        <time>2022-01-20T19:08:58.174Z</time>
      </trkpt>
      <trkpt lat="46.20763" lon="6.76414">
        <ele>1575.1281596805</ele>
        <time>2022-01-20T19:09:06.527Z</time>
      </trkpt>
      <trkpt lat="46.20757" lon="6.76409">
        <ele>1576.0185011589</ele>
        <time>2022-01-20T19:09:14.881Z</time>
      </trkpt>
      <trkpt lat="46.20704" lon="6.76398">
        <ele>1577.1483874965</ele>
        <time>2022-01-20T19:09:23.244Z</time>
      </trkpt>
      <trkpt lat="46.20704" lon="6.76398">
        <ele>1577.9102830816</ele>
        <time>2022-01-20T19:09:31.607Z</time>
      </trkpt>
      <trkpt lat="46.20659" lon="6.76391">
        <ele>1578.7269272008</ele>
        <time>2022-01-20T19:09:39.977Z</time>
      </trkpt>
      <trkpt lat="46.20645" lon="6.76383">
        <ele>1579.4115975788</ele>
        <time>2022-01-20T19:09:48.349Z</time>
      </trkpt>
      <trkpt lat="46.20635" lon="6.76376">
        <ele>1580.0179102299</ele>
        <time>2022-01-20T19:09:56.723Z</time>
      </trkpt>
      <trkpt lat="46.20628" lon="6.76363">
        <ele>1580.5602362622</ele>
        <time>2022-01-20T19:10:05.099Z</time>
      </trkpt>
      <trkpt lat="46.20624" lon="6.7635">
        <ele>1581.0272234817</ele>
        <time>2022-01-20T19:10:13.476Z</time>
      </trkpt>
      <trkpt lat="46.20624" lon="6.76335">
        <ele>1581.4105144731</ele>
        <time>2022-01-20T19:10:21.855Z</time>
      </trkpt>
      <trkpt lat="46.20634" lon="6.763">
        <ele>1581.6844771559</ele>
        <time>2022-01-20T19:10:30.238Z</time>
      </trkpt>
      <trkpt lat="46.20634" lon="6.763">
        <ele>1581.9590754322</ele>
        <time>2022-01-20T19:10:38.621Z</time>
      </trkpt>
      <trkpt lat="46.20635" lon="6.7629">
        <ele>1582.170677109</ele>
        <time>2022-01-20T19:10:47.005Z</time>
      </trkpt>
      <trkpt lat="46.20633" lon="6.76281">
        <ele>1582.3718629123</ele>
        <time>2022-01-20T19:10:55.390Z</time>
      </trkpt>
      <trkpt lat="46.20622" lon="6.7627">
        <ele>1582.5547399302</ele>
        <time>2022-01-20T19:11:03.778Z</time>
      </trkpt>
      <trkpt lat="46.20605" lon="6.76258">
        <ele>1582.7176627806</ele>
        <time>2022-01-20T19:11:12.169Z</time>
      </trkpt>
      <trkpt lat="46.20595" lon="6.76242">
        <ele>1582.8578778856</ele>
        <time>2022-01-20T19:11:20.562Z</time>
      </trkpt>
      <trkpt lat="46.20592" lon="6.76219">
        <ele>1582.9953822764</ele>
        <time>2022-01-20T19:11:28.958Z</time>
      </trkpt>
      <trkpt lat="46.20595" lon="6.76204">
        <ele>1583.1498902523</ele>
        <time>2022-01-20T19:11:37.355Z</time>
      </trkpt>
      <trkpt lat="46.20606" lon="6.76175">
        <ele>1583.2614704082</ele>
        <time>2022-01-20T19:11:45.756Z</time>
      </trkpt>
      <trkpt lat="46.20606" lon="6.7617">
        <ele>1583.4907266454</ele>
        <time>2022-01-20T19:11:54.158Z</time>
      </trkpt>
      <trkpt lat="46.20604" lon="6.76159">
        <ele>1583.7795941097</ele>
        <time>2022-01-20T19:12:02.561Z</time>
      </trkpt>
      <trkpt lat="46.206" lon="6.76152">
        <ele>1584.1437132548</ele>
        <time>2022-01-20T19:12:10.965Z</time>
      </trkpt>
      <trkpt lat="46.20593" lon="6.76148">
        <ele>1584.5946952777</ele>
        <time>2022-01-20T19:12:19.370Z</time>
      </trkpt>
      <trkpt lat="46.20588" lon="6.76149">
        <ele>1585.1356757337</ele>
        <time>2022-01-20T19:12:27.776Z</time>
      </trkpt>
      <trkpt lat="46.2058" lon="6.76157">
        <ele>1585.7886064561</ele>
        <time>2022-01-20T19:12:36.183Z</time>
      </trkpt>
      <trkpt lat="46.20574" lon="6.76175">
        <ele>1586.573000889</ele>
        <time>2022-01-20T19:12:44.593Z</time>
      </trkpt>
      <trkpt lat="46.20569" lon="6.7622">
        <ele>1587.4544630024</ele>
        <time>2022-01-20T19:12:53.008Z</time>
      </trkpt>
      <trkpt lat="46.20566" lon="6.76232">
        <ele>1588.3894678393</ele>
        <time>2022-01-20T19:13:01.424Z</time>
      </trkpt>
      <trkpt lat="46.2056" lon="6.76242">
        <ele>1589.4553672892</ele>
        <time>2022-01-20T19:13:09.841Z</time>
      </trkpt>
      <trkpt lat="46.20545" lon="6.7626">
        <ele>1590.6650354182</ele>
        <time>2022-01-20T19:13:18.262Z</time>
      </trkpt>
      <trkpt lat="46.20532" lon="6.76279">
        <ele>1591.9798170853</ele>
        <time>2022-01-20T19:13:26.686Z</time>
      </trkpt>
      <trkpt lat="46.20522" lon="6.76295">
        <ele>1593.4063482992</ele>
        <time>2022-01-20T19:13:35.112Z</time>
      </trkpt>
      <trkpt lat="46.20511" lon="6.76324">
        <ele>1594.9965381372</ele>
        <time>2022-01-20T19:13:43.542Z</time>
      </trkpt>
      <trkpt lat="46.20503" lon="6.76358">
        <ele>1596.6084603622</ele>
        <time>2022-01-20T19:13:51.976Z</time>
      </trkpt>
      <trkpt lat="46.20504" lon="6.76372">
        <ele>1598.2121653554</ele>
        <time>2022-01-20T19:14:00.411Z</time>
      </trkpt>
      <trkpt lat="46.20512" lon="6.76401">
        <ele>1599.8398750795</ele>
        <time>2022-01-20T19:14:08.850Z</time>
      </trkpt>
      <trkpt lat="46.20513" lon="6.76412">
        <ele>1601.5821913535</ele>
        <time>2022-01-20T19:14:17.290Z</time>
      </trkpt>
      <trkpt lat="46.20511" lon="6.76426">
        <ele>1603.4124792926</ele>
        <time>2022-01-20T19:14:25.732Z</time>
      </trkpt>
      <trkpt lat="46.20506" lon="6.76436">
        <ele>1605.3018188692</ele>
        <time>2022-01-20T19:14:34.175Z</time>
      </trkpt>
      <trkpt lat="46.20492" lon="6.76445">
        <ele>1607.3528488512</ele>
        <time>2022-01-20T19:14:42.620Z</time>
      </trkpt>
      <trkpt lat="46.20463" lon="6.76452">
        <ele>1609.4927147937</ele>
        <time>2022-01-20T19:14:51.070Z</time>
      </trkpt>
      <trkpt lat="46.20414" lon="6.7646">
        <ele>1611.6569727735</ele>
        <time>2022-01-20T19:14:59.528Z</time>
      </trkpt>
      <trkpt lat="46.20394" lon="6.76455">
        <ele>1613.7780718706</ele>
        <time>2022-01-20T19:15:07.989Z</time>
      </trkpt>
      <trkpt lat="46.20385" lon="6.76451">
        <ele>1615.8831689093</ele>
        <time>2022-01-20T19:15:16.452Z</time>
      </trkpt>
      <trkpt lat="46.20366" lon="6.76436">
        <ele>1618.0323310437</ele>
        <time>2022-01-20T19:15:24.918Z</time>
      </trkpt>
      <trkpt lat="46.2035" lon="6.76426">
        <ele>1620.1589408379</ele>
        <time>2022-01-20T19:15:33.387Z</time>
      </trkpt>
      <trkpt lat="46.20332" lon="6.76427">
        <ele>1622.2494521448</ele>
        <time>2022-01-20T19:15:41.859Z</time>
      </trkpt>
      <trkpt lat="46.20291" lon="6.76437">
        <ele>1624.4274852534</ele>
        <time>2022-01-20T19:15:50.337Z</time>
      </trkpt>
      <trkpt lat="46.20282" lon="6.76446">
        <ele>1626.4773852876</ele>
        <time>2022-01-20T19:15:58.817Z</time>
      </trkpt>
      <trkpt lat="46.20278" lon="6.76452">
        <ele>1628.4501513591</ele>
        <time>2022-01-20T19:16:07.298Z</time>
      </trkpt>
      <trkpt lat="46.20263" lon="6.7649">
        <ele>1630.3881206865</ele>
        <time>2022-01-20T19:16:15.784Z</time>
      </trkpt>
      <trkpt lat="46.20257" lon="6.76493">
        <ele>1632.274210336</ele>
        <time>2022-01-20T19:16:24.271Z</time>
      </trkpt>
      <trkpt lat="46.2025" lon="6.76491">
        <ele>1634.1269168117</ele>
        <time>2022-01-20T19:16:32.759Z</time>
      </trkpt>
      <trkpt lat="46.20245" lon="6.76482">
        <ele>1635.9232295425</ele>
        <time>2022-01-20T19:16:41.248Z</time>
      </trkpt>
      <trkpt lat="46.20246" lon="6.7647">
        <ele>1637.6136824998</ele>
        <time>2022-01-20T19:16:49.739Z</time>
      </trkpt>
      <trkpt lat="46.20265" lon="6.76438">
        <ele>1639.1550116672</ele>
        <time>2022-01-20T19:16:58.234Z</time>
      </trkpt>
      <trkpt lat="46.20267" lon="6.7642">
        <ele>1640.7213255234</ele>
        <time>2022-01-20T19:17:06.731Z</time>
      </trkpt>
      <trkpt lat="46.20267" lon="6.76395">
        <ele>1642.2544210285</ele>
        <time>2022-01-20T19:17:15.231Z</time>
      </trkpt>
      <trkpt lat="46.20269" lon="6.76377">
        <ele>1643.7140606324</ele>
        <time>2022-01-20T19:17:23.733Z</time>
      </trkpt>
      <trkpt lat="46.20282" lon="6.76329">
        <ele>1645.1072209017</ele>
        <time>2022-01-20T19:17:32.241Z</time>
      </trkpt>
      <trkpt lat="46.20293" lon="6.76273">
        <ele>1646.6100614723</ele>
        <time>2022-01-20T19:17:40.755Z</time>
      </trkpt>
      <trkpt lat="46.20299" lon="6.76263">
        <ele>1647.8625058252</ele>
        <time>2022-01-20T19:17:49.271Z</time>
      </trkpt>
      <trkpt lat="46.20311" lon="6.76251">
        <ele>1649.0592825868</ele>
        <time>2022-01-20T19:17:57.789Z</time>
      </trkpt>
      <trkpt lat="46.20317" lon="6.76234">
        <ele>1650.1774436588</ele>
        <time>2022-01-20T19:18:06.309Z</time>
      </trkpt>
      <trkpt lat="46.2032" lon="6.76219">
        <ele>1651.2066330764</ele>
        <time>2022-01-20T19:18:14.831Z</time>
      </trkpt>
      <trkpt lat="46.2032" lon="6.76191">
        <ele>1652.1845758005</ele>
        <time>2022-01-20T19:18:23.356Z</time>
      </trkpt>
      <trkpt lat="46.20322" lon="6.76183">
        <ele>1653.0830397311</ele>
        <time>2022-01-20T19:18:31.882Z</time>
      </trkpt>
      <trkpt lat="46.20322" lon="6.76183">
        <ele>1653.9262381444</ele>
        <time>2022-01-20T19:18:40.408Z</time>
      </trkpt>
      <trkpt lat="46.20324" lon="6.7617">
        <ele>1654.7207622739</ele>
        <time>2022-01-20T19:18:48.936Z</time>
      </trkpt>
      <trkpt lat="46.20324" lon="6.76158">
        <ele>1655.4645778816</ele>
        <time>2022-01-20T19:18:57.465Z</time>
      </trkpt>
      <trkpt lat="46.20319" lon="6.76149">
        <ele>1656.1950369831</ele>
        <time>2022-01-20T19:19:05.995Z</time>
      </trkpt>
      <trkpt lat="46.2031" lon="6.76147">
        <ele>1656.9154386006</ele>
        <time>2022-01-20T19:19:14.527Z</time>
      </trkpt>
      <trkpt lat="46.20302" lon="6.76153">
        <ele>1657.6196038963</ele>
        <time>2022-01-20T19:19:23.060Z</time>
      </trkpt>
      <trkpt lat="46.20286" lon="6.76174">
        <ele>1658.3062691659</ele>
        <time>2022-01-20T19:19:31.597Z</time>
      </trkpt>
      <trkpt lat="46.20253" lon="6.76207">
        <ele>1658.9669316605</ele>
        <time>2022-01-20T19:19:40.140Z</time>
      </trkpt>
      <trkpt lat="46.20236" lon="6.7623">
        <ele>1659.6412363866</ele>
        <time>2022-01-20T19:19:48.687Z</time>
      </trkpt>
      <trkpt lat="46.20223" lon="6.76241">
        <ele>1660.3265553341</ele>
        <time>2022-01-20T19:19:57.236Z</time>
      </trkpt>
      <trkpt lat="46.20213" lon="6.76244">
        <ele>1661.00142927</ele>
        <time>2022-01-20T19:20:05.787Z</time>
      </trkpt>
      <trkpt lat="46.20204" lon="6.76244">
        <ele>1661.6909550698</ele>
        <time>2022-01-20T19:20:14.339Z</time>
      </trkpt>
      <trkpt lat="46.20183" lon="6.76232">
        <ele>1662.46559411</ele>
        <time>2022-01-20T19:20:22.895Z</time>
      </trkpt>
      <trkpt lat="46.20175" lon="6.76231">
        <ele>1663.1604522001</ele>
        <time>2022-01-20T19:20:31.452Z</time>
      </trkpt>
      <trkpt lat="46.20158" lon="6.76243">
        <ele>1663.8677142141</ele>
        <time>2022-01-20T19:20:40.012Z</time>
      </trkpt>
      <trkpt lat="46.2015" lon="6.7625">
        <ele>1664.5779428768</ele>
        <time>2022-01-20T19:20:48.574Z</time>
      </trkpt>
      <trkpt lat="46.20146" lon="6.76261">
        <ele>1665.2749316264</ele>
        <time>2022-01-20T19:20:57.137Z</time>
      </trkpt>
      <trkpt lat="46.20145" lon="6.76274">
        <ele>1665.9886432963</ele>
        <time>2022-01-20T19:21:05.701Z</time>
      </trkpt>
      <trkpt lat="46.20151" lon="6.76301">
        <ele>1666.6957971908</ele>
        <time>2022-01-20T19:21:14.269Z</time>
      </trkpt>
      <trkpt lat="46.20153" lon="6.76313">
        <ele>1667.4739393522</ele>
        <time>2022-01-20T19:21:22.838Z</time>
      </trkpt>
      <trkpt lat="46.20152" lon="6.76323">
        <ele>1668.3137815149</ele>
        <time>2022-01-20T19:21:31.408Z</time>
      </trkpt>
      <trkpt lat="46.20146" lon="6.76339">
        <ele>1669.2235986532</ele>
        <time>2022-01-20T19:21:39.980Z</time>
      </trkpt>
      <trkpt lat="46.20143" lon="6.76343">
        <ele>1670.1333081992</ele>
        <time>2022-01-20T19:21:48.553Z</time>
      </trkpt>
      <trkpt lat="46.20121" lon="6.76347">
        <ele>1671.1847857264</ele>
        <time>2022-01-20T19:21:57.129Z</time>
      </trkpt>
      <trkpt lat="46.20113" lon="6.76353">
        <ele>1672.2187724618</ele>
        <time>2022-01-20T19:22:05.707Z</time>
      </trkpt>
      <trkpt lat="46.20106" lon="6.76364">
        <ele>1673.2543111139</ele>
        <time>2022-01-20T19:22:14.286Z</time>
      </trkpt>
      <trkpt lat="46.201" lon="6.76388">
        <ele>1674.3670329686</ele>
        <time>2022-01-20T19:22:22.868Z</time>
      </trkpt>
      <trkpt lat="46.20098" lon="6.76466">
        <ele>1675.4710874373</ele>
        <time>2022-01-20T19:22:31.459Z</time>
      </trkpt>
      <trkpt lat="46.20098" lon="6.76466">
        <ele>1676.588330705</ele>
        <time>2022-01-20T19:22:40.050Z</time>
      </trkpt>
      <trkpt lat="46.20098" lon="6.7648">
        <ele>1677.7607525078</ele>
        <time>2022-01-20T19:22:48.643Z</time>
      </trkpt>
      <trkpt lat="46.20094" lon="6.76487">
        <ele>1678.9859752003</ele>
        <time>2022-01-20T19:22:57.237Z</time>
      </trkpt>
      <trkpt lat="46.20089" lon="6.76491">
        <ele>1680.2726469986</ele>
        <time>2022-01-20T19:23:05.831Z</time>
      </trkpt>
      <trkpt lat="46.20086" lon="6.76487">
        <ele>1681.5918362113</ele>
        <time>2022-01-20T19:23:14.426Z</time>
      </trkpt>
      <trkpt lat="46.20086" lon="6.76487">
        <ele>1682.9382217112</ele>
        <time>2022-01-20T19:23:23.021Z</time>
      </trkpt>
      <trkpt lat="46.20084" lon="6.76485">
        <ele>1684.3528603332</ele>
        <time>2022-01-20T19:23:31.617Z</time>
      </trkpt>
      <trkpt lat="46.20082" lon="6.76479">
        <ele>1685.8136990426</ele>
        <time>2022-01-20T19:23:40.213Z</time>
      </trkpt>
      <trkpt lat="46.20086" lon="6.76443">
        <ele>1687.272236242</ele>
        <time>2022-01-20T19:23:48.813Z</time>
      </trkpt>
      <trkpt lat="46.20086" lon="6.76423">
        <ele>1688.8410420685</ele>
        <time>2022-01-20T19:23:57.415Z</time>
      </trkpt>
      <trkpt lat="46.20072" lon="6.76367">
        <ele>1690.6616711884</ele>
        <time>2022-01-20T19:24:06.024Z</time>
      </trkpt>
      <trkpt lat="46.20066" lon="6.76328">
        <ele>1692.3516540024</ele>
        <time>2022-01-20T19:24:14.638Z</time>
      </trkpt>
      <trkpt lat="46.20064" lon="6.76257">
        <ele>1694.1403918096</ele>
        <time>2022-01-20T19:24:23.259Z</time>
      </trkpt>
      <trkpt lat="46.20063" lon="6.76205">
        <ele>1696.1541355497</ele>
        <time>2022-01-20T19:24:31.886Z</time>
      </trkpt>
      <trkpt lat="46.20065" lon="6.76191">
        <ele>1697.9835036046</ele>
        <time>2022-01-20T19:24:40.515Z</time>
      </trkpt>
      <trkpt lat="46.20067" lon="6.76184">
        <ele>1699.7999121724</ele>
        <time>2022-01-20T19:24:49.145Z</time>
      </trkpt>
      <trkpt lat="46.20088" lon="6.76141">
        <ele>1701.5218799528</ele>
        <time>2022-01-20T19:24:57.780Z</time>
      </trkpt>
      <trkpt lat="46.20094" lon="6.76118">
        <ele>1703.388285295</ele>
        <time>2022-01-20T19:25:06.418Z</time>
      </trkpt>
      <trkpt lat="46.20101" lon="6.76038">
        <ele>1705.5332537104</ele>
        <time>2022-01-20T19:25:15.065Z</time>
      </trkpt>
      <trkpt lat="46.20109" lon="6.75999">
        <ele>1707.6106270343</ele>
        <time>2022-01-20T19:25:23.717Z</time>
      </trkpt>
      <trkpt lat="46.20118" lon="6.75977">
        <ele>1709.5803005142</ele>
        <time>2022-01-20T19:25:32.372Z</time>
      </trkpt>
      <trkpt lat="46.20121" lon="6.75972">
        <ele>1711.4430931604</ele>
        <time>2022-01-20T19:25:41.027Z</time>
      </trkpt>
      <trkpt lat="46.20152" lon="6.75939">
        <ele>1713.3445474687</ele>
        <time>2022-01-20T19:25:49.688Z</time>
      </trkpt>
      <trkpt lat="46.20172" lon="6.75926">
        <ele>1715.1940320888</ele>
        <time>2022-01-20T19:25:58.353Z</time>
      </trkpt>
      <trkpt lat="46.20206" lon="6.7589">
        <ele>1717.0283680495</ele>
        <time>2022-01-20T19:26:07.025Z</time>
      </trkpt>
      <trkpt lat="46.20231" lon="6.75847">
        <ele>1719.0374009204</ele>
        <time>2022-01-20T19:26:15.703Z</time>
      </trkpt>
      <trkpt lat="46.20238" lon="6.7584">
        <ele>1720.8410468663</ele>
        <time>2022-01-20T19:26:24.382Z</time>
      </trkpt>
      <trkpt lat="46.20271" lon="6.75834">
        <ele>1722.4589025192</ele>
        <time>2022-01-20T19:26:33.067Z</time>
      </trkpt>
      <trkpt lat="46.20284" lon="6.75828">
        <ele>1724.1993146544</ele>
        <time>2022-01-20T19:26:41.754Z</time>
      </trkpt>
      <trkpt lat="46.20296" lon="6.75815">
        <ele>1725.9441543665</ele>
        <time>2022-01-20T19:26:50.443Z</time>
      </trkpt>
      <trkpt lat="46.20298" lon="6.75807">
        <ele>1727.749339784</ele>
        <time>2022-01-20T19:26:59.133Z</time>
      </trkpt>
      <trkpt lat="46.20299" lon="6.75798">
        <ele>1729.5856004056</ele>
        <time>2022-01-20T19:27:07.824Z</time>
      </trkpt>
      <trkpt lat="46.20296" lon="6.7579">
        <ele>1731.4871816174</ele>
        <time>2022-01-20T19:27:16.516Z</time>
      </trkpt>
      <trkpt lat="46.20291" lon="6.75787">
        <ele>1733.4264410349</ele>
        <time>2022-01-20T19:27:25.209Z</time>
      </trkpt>
      <trkpt lat="46.20285" lon="6.7579">
        <ele>1735.3803451471</ele>
        <time>2022-01-20T19:27:33.903Z</time>
      </trkpt>
      <trkpt lat="46.20269" lon="6.75807">
        <ele>1737.4092070919</ele>
        <time>2022-01-20T19:27:42.600Z</time>
      </trkpt>
      <trkpt lat="46.20263" lon="6.75813">
        <ele>1739.3932871087</ele>
        <time>2022-01-20T19:27:51.298Z</time>
      </trkpt>
      <trkpt lat="46.20254" lon="6.75814">
        <ele>1741.4168657818</ele>
        <time>2022-01-20T19:27:59.998Z</time>
      </trkpt>
      <trkpt lat="46.20224" lon="6.75814">
        <ele>1743.6058313528</ele>
        <time>2022-01-20T19:28:08.703Z</time>
      </trkpt>
      <trkpt lat="46.20214" lon="6.75817">
        <ele>1745.6086016364</ele>
        <time>2022-01-20T19:28:17.409Z</time>
      </trkpt>
      <trkpt lat="46.20203" lon="6.75823">
        <ele>1747.5522602295</ele>
        <time>2022-01-20T19:28:26.117Z</time>
      </trkpt>
      <trkpt lat="46.20126" lon="6.75879">
        <ele>1749.6697639768</ele>
        <time>2022-01-20T19:28:34.839Z</time>
      </trkpt>
      <trkpt lat="46.20057" lon="6.75948">
        <ele>1751.4520938135</ele>
        <time>2022-01-20T19:28:43.574Z</time>
      </trkpt>
      <trkpt lat="46.20052" lon="6.75948">
        <ele>1753.2882267947</ele>
        <time>2022-01-20T19:28:52.310Z</time>
      </trkpt>
      <trkpt lat="46.20046" lon="6.75941">
        <ele>1755.1010115496</ele>
        <time>2022-01-20T19:29:01.047Z</time>
      </trkpt>
      <trkpt lat="46.20045" lon="6.75934">
        <ele>1756.7893919372</ele>
        <time>2022-01-20T19:29:09.785Z</time>
      </trkpt>
      <trkpt lat="46.20046" lon="6.75926">
        <ele>1758.3718416701</ele>
        <time>2022-01-20T19:29:18.524Z</time>
      </trkpt>
      <trkpt lat="46.20056" lon="6.75917">
        <ele>1759.8099921422</ele>
        <time>2022-01-20T19:29:27.265Z</time>
      </trkpt>
      <trkpt lat="46.20081" lon="6.75903">
        <ele>1761.0816200032</ele>
        <time>2022-01-20T19:29:36.010Z</time>
      </trkpt>
      <trkpt lat="46.20085" lon="6.75897">
        <ele>1762.2722638502</ele>
        <time>2022-01-20T19:29:44.756Z</time>
      </trkpt>
      <trkpt lat="46.20085" lon="6.75892">
        <ele>1763.3068101642</ele>
        <time>2022-01-20T19:29:53.503Z</time>
      </trkpt>
      <trkpt lat="46.20084" lon="6.75886">
        <ele>1764.1811983525</ele>
        <time>2022-01-20T19:30:02.250Z</time>
      </trkpt>
      <trkpt lat="46.2008" lon="6.75881">
        <ele>1764.8853311856</ele>
        <time>2022-01-20T19:30:10.998Z</time>
      </trkpt>
      <trkpt lat="46.20073" lon="6.75882">
        <ele>1765.3971737684</ele>
        <time>2022-01-20T19:30:19.747Z</time>
      </trkpt>
      <trkpt lat="46.20042" lon="6.75901">
        <ele>1765.6580424516</ele>
        <time>2022-01-20T19:30:28.502Z</time>
      </trkpt>
      <trkpt lat="46.20028" lon="6.7591">
        <ele>1765.7027160334</ele>
        <time>2022-01-20T19:30:37.259Z</time>
      </trkpt>
      <trkpt lat="46.20013" lon="6.75925">
        <ele>1765.5531023222</ele>
        <time>2022-01-20T19:30:46.019Z</time>
      </trkpt>
      <trkpt lat="46.2001" lon="6.75928">
        <ele>1765.2039518353</ele>
        <time>2022-01-20T19:30:54.780Z</time>
      </trkpt>
      <trkpt lat="46.20004" lon="6.75928">
        <ele>1764.6467398963</ele>
        <time>2022-01-20T19:31:03.542Z</time>
      </trkpt>
      <trkpt lat="46.19998" lon="6.75926">
        <ele>1763.8728805725</ele>
        <time>2022-01-20T19:31:12.305Z</time>
      </trkpt>
      <trkpt lat="46.20019" lon="6.75859">
        <ele>1762.9186213621</ele>
        <time>2022-01-20T19:31:21.076Z</time>
      </trkpt>
      <trkpt lat="46.20027" lon="6.75819">
        <ele>1761.6345661145</ele>
        <time>2022-01-20T19:31:29.852Z</time>
      </trkpt>
      <trkpt lat="46.20029" lon="6.75806">
        <ele>1760.1343743799</ele>
        <time>2022-01-20T19:31:38.629Z</time>
      </trkpt>
      <trkpt lat="46.20049" lon="6.75696">
        <ele>1758.3299764436</ele>
        <time>2022-01-20T19:31:47.419Z</time>
      </trkpt>
      <trkpt lat="46.20051" lon="6.75678">
        <ele>1756.355213366</ele>
        <time>2022-01-20T19:31:56.211Z</time>
      </trkpt>
      <trkpt lat="46.20052" lon="6.75651">
        <ele>1754.174848822</ele>
        <time>2022-01-20T19:32:05.006Z</time>
      </trkpt>
      <trkpt lat="46.20048" lon="6.75594">
        <ele>1751.7601893125</ele>
        <time>2022-01-20T19:32:13.807Z</time>
      </trkpt>
    </trkseg>
  </trk>
</gpx>